<?xml version="1.0" encoding="UTF-8" standalone="no" ?><gpx xmlns="http://www.topografix.com/GPX/1/1" creator="B.iCycle for iPhone" version="1.1" xmlns:xsi="http://www.w3.org/2001/XMLSchema-instance" xsi:schemaLocation="http://www.topografix.com/GPX/1/1 http://www.topografix.com/GPX/1/1/gpx.xsd">
<trk>
<name>B.iCycle Track from 2011-04-10_12.32.31</name>
<trkseg>
<trkpt lat="50.305738" lon="8.539850"><ele>343.416712</ele><time>2011-04-10T10:32:37.701Z</time>
</trkpt>
<trkpt lat="50.305582" lon="8.540068"><ele>344.416846</ele><time>2011-04-10T10:32:43.720Z</time>
</trkpt>
<trkpt lat="50.305416" lon="8.540237"><ele>345.416980</ele><time>2011-04-10T10:32:48.728Z</time>
</trkpt>
<trkpt lat="50.305235" lon="8.540394"><ele>346.417113</ele><time>2011-04-10T10:32:53.720Z</time>
</trkpt>
<trkpt lat="50.305046" lon="8.540536"><ele>347.417247</ele><time>2011-04-10T10:32:58.731Z</time>
</trkpt>
<trkpt lat="50.304866" lon="8.540676"><ele>348.417381</ele><time>2011-04-10T10:33:03.800Z</time>
</trkpt>
<trkpt lat="50.304701" lon="8.540817"><ele>348.417290</ele><time>2011-04-10T10:33:08.724Z</time>
</trkpt>
<trkpt lat="50.304527" lon="8.540953"><ele>348.417168</ele><time>2011-04-10T10:33:13.889Z</time>
</trkpt>
<trkpt lat="50.304348" lon="8.541100"><ele>348.417046</ele><time>2011-04-10T10:33:18.742Z</time>
</trkpt>
<trkpt lat="50.304165" lon="8.541247"><ele>348.416924</ele><time>2011-04-10T10:33:23.735Z</time>
</trkpt>
<trkpt lat="50.303985" lon="8.541396"><ele>349.417057</ele><time>2011-04-10T10:33:28.734Z</time>
</trkpt>
<trkpt lat="50.303815" lon="8.541557"><ele>351.417478</ele><time>2011-04-10T10:33:33.738Z</time>
</trkpt>
<trkpt lat="50.303649" lon="8.541715"><ele>353.417868</ele><time>2011-04-10T10:33:38.730Z</time>
</trkpt>
<trkpt lat="50.303486" lon="8.541891"><ele>354.418002</ele><time>2011-04-10T10:33:43.732Z</time>
</trkpt>
<trkpt lat="50.303432" lon="8.542177"><ele>355.418197</ele><time>2011-04-10T10:33:48.729Z</time>
</trkpt>
<trkpt lat="50.303484" lon="8.542502"><ele>358.418965</ele><time>2011-04-10T10:33:53.749Z</time>
</trkpt>
<trkpt lat="50.303535" lon="8.542841"><ele>360.419508</ele><time>2011-04-10T10:33:58.734Z</time>
</trkpt>
<trkpt lat="50.303567" lon="8.543186"><ele>361.419733</ele><time>2011-04-10T10:34:03.738Z</time>
</trkpt>
<trkpt lat="50.303592" lon="8.543538"><ele>361.419733</ele><time>2011-04-10T10:34:08.735Z</time>
</trkpt>
<trkpt lat="50.303611" lon="8.543835"><ele>361.419733</ele><time>2011-04-10T10:34:12.732Z</time>
</trkpt>
<trkpt lat="50.303628" lon="8.544160"><ele>361.419703</ele><time>2011-04-10T10:34:16.739Z</time>
</trkpt>
<trkpt lat="50.303645" lon="8.544501"><ele>361.419672</ele><time>2011-04-10T10:34:20.726Z</time>
</trkpt>
<trkpt lat="50.303640" lon="8.544819"><ele>361.419672</ele><time>2011-04-10T10:34:24.748Z</time>
</trkpt>
<trkpt lat="50.303635" lon="8.545139"><ele>362.419898</ele><time>2011-04-10T10:34:28.727Z</time>
</trkpt>
<trkpt lat="50.303636" lon="8.545451"><ele>361.419611</ele><time>2011-04-10T10:34:32.731Z</time>
</trkpt>
<trkpt lat="50.303646" lon="8.545767"><ele>361.419581</ele><time>2011-04-10T10:34:36.747Z</time>
</trkpt>
<trkpt lat="50.303657" lon="8.546088"><ele>361.419581</ele><time>2011-04-10T10:34:40.744Z</time>
</trkpt>
<trkpt lat="50.303665" lon="8.546423"><ele>362.419806</ele><time>2011-04-10T10:34:44.751Z</time>
</trkpt>
<trkpt lat="50.303677" lon="8.546738"><ele>362.419776</ele><time>2011-04-10T10:34:48.751Z</time>
</trkpt>
<trkpt lat="50.303724" lon="8.547059"><ele>362.419776</ele><time>2011-04-10T10:34:53.745Z</time>
</trkpt>
<trkpt lat="50.303761" lon="8.547346"><ele>361.419550</ele><time>2011-04-10T10:34:57.741Z</time>
</trkpt>
<trkpt lat="50.303805" lon="8.547649"><ele>361.419550</ele><time>2011-04-10T10:35:00.750Z</time>
</trkpt>
<trkpt lat="50.303874" lon="8.548033"><ele>362.419806</ele><time>2011-04-10T10:35:03.744Z</time>
</trkpt>
<trkpt lat="50.303948" lon="8.548425"><ele>365.420575</ele><time>2011-04-10T10:35:06.757Z</time>
</trkpt>
<trkpt lat="50.304053" lon="8.548816"><ele>367.421117</ele><time>2011-04-10T10:35:09.741Z</time>
</trkpt>
<trkpt lat="50.304207" lon="8.549193"><ele>368.421465</ele><time>2011-04-10T10:35:12.832Z</time>
</trkpt>
<trkpt lat="50.304312" lon="8.549434"><ele>367.421239</ele><time>2011-04-10T10:35:14.753Z</time>
</trkpt>
<trkpt lat="50.304483" lon="8.549790"><ele>368.421556</ele><time>2011-04-10T10:35:17.743Z</time>
</trkpt>
<trkpt lat="50.304661" lon="8.550151"><ele>368.421648</ele><time>2011-04-10T10:35:20.739Z</time>
</trkpt>
<trkpt lat="50.304782" lon="8.550394"><ele>368.421709</ele><time>2011-04-10T10:35:22.742Z</time>
</trkpt>
<trkpt lat="50.304963" lon="8.550771"><ele>367.421514</ele><time>2011-04-10T10:35:25.739Z</time>
</trkpt>
<trkpt lat="50.305079" lon="8.551009"><ele>367.421575</ele><time>2011-04-10T10:35:27.747Z</time>
</trkpt>
<trkpt lat="50.305253" lon="8.551366"><ele>366.421380</ele><time>2011-04-10T10:35:30.747Z</time>
</trkpt>
<trkpt lat="50.305364" lon="8.551597"><ele>366.421441</ele><time>2011-04-10T10:35:32.776Z</time>
</trkpt>
<trkpt lat="50.305517" lon="8.551935"><ele>366.421502</ele><time>2011-04-10T10:35:35.735Z</time>
</trkpt>
<trkpt lat="50.305676" lon="8.552258"><ele>365.421307</ele><time>2011-04-10T10:35:38.770Z</time>
</trkpt>
<trkpt lat="50.305835" lon="8.552578"><ele>363.420887</ele><time>2011-04-10T10:35:41.756Z</time>
</trkpt>
<trkpt lat="50.305994" lon="8.552889"><ele>363.420948</ele><time>2011-04-10T10:35:44.767Z</time>
</trkpt>
<trkpt lat="50.306145" lon="8.553204"><ele>363.421009</ele><time>2011-04-10T10:35:47.755Z</time>
</trkpt>
<trkpt lat="50.306291" lon="8.553516"><ele>364.421326</ele><time>2011-04-10T10:35:50.752Z</time>
</trkpt>
<trkpt lat="50.306434" lon="8.553810"><ele>363.421131</ele><time>2011-04-10T10:35:53.749Z</time>
</trkpt>
<trkpt lat="50.306577" lon="8.554096"><ele>363.421192</ele><time>2011-04-10T10:35:56.759Z</time>
</trkpt>
<trkpt lat="50.306707" lon="8.554356"><ele>364.421509</ele><time>2011-04-10T10:35:59.750Z</time>
</trkpt>
<trkpt lat="50.306836" lon="8.554615"><ele>363.421314</ele><time>2011-04-10T10:36:02.744Z</time>
</trkpt>
<trkpt lat="50.306965" lon="8.554879"><ele>361.420863</ele><time>2011-04-10T10:36:05.744Z</time>
</trkpt>
<trkpt lat="50.307095" lon="8.555137"><ele>359.420412</ele><time>2011-04-10T10:36:08.741Z</time>
</trkpt>
<trkpt lat="50.307225" lon="8.555394"><ele>356.419705</ele><time>2011-04-10T10:36:11.749Z</time>
</trkpt>
<trkpt lat="50.307357" lon="8.555643"><ele>355.419510</ele><time>2011-04-10T10:36:14.748Z</time>
</trkpt>
<trkpt lat="50.307570" lon="8.555780"><ele>354.419345</ele><time>2011-04-10T10:36:18.870Z</time>
</trkpt>
<trkpt lat="50.307795" lon="8.555816"><ele>350.418474</ele><time>2011-04-10T10:36:22.744Z</time>
</trkpt>
<trkpt lat="50.308003" lon="8.555861"><ele>347.417827</ele><time>2011-04-10T10:36:26.743Z</time>
</trkpt>
<trkpt lat="50.308191" lon="8.555894"><ele>345.417407</ele><time>2011-04-10T10:36:30.739Z</time>
</trkpt>
<trkpt lat="50.308407" lon="8.555937"><ele>344.417273</ele><time>2011-04-10T10:36:35.745Z</time>
</trkpt>
<trkpt lat="50.308594" lon="8.555885"><ele>342.416883</ele><time>2011-04-10T10:36:40.739Z</time>
</trkpt>
<trkpt lat="50.308767" lon="8.555762"><ele>341.416749</ele><time>2011-04-10T10:36:45.745Z</time>
</trkpt>
<trkpt lat="50.308948" lon="8.555615"><ele>341.416871</ele><time>2011-04-10T10:36:51.743Z</time>
</trkpt>
<trkpt lat="50.309108" lon="8.555482"><ele>341.416963</ele><time>2011-04-10T10:36:56.769Z</time>
</trkpt>
<trkpt lat="50.309297" lon="8.555318"><ele>342.417371</ele><time>2011-04-10T10:37:03.801Z</time>
</trkpt>
<trkpt lat="50.309504" lon="8.555193"><ele>344.418006</ele><time>2011-04-10T10:37:08.750Z</time>
</trkpt>
<trkpt lat="50.309690" lon="8.555073"><ele>344.418128</ele><time>2011-04-10T10:37:13.772Z</time>
</trkpt>
<trkpt lat="50.309855" lon="8.554953"><ele>344.418219</ele><time>2011-04-10T10:37:18.757Z</time>
</trkpt>
<trkpt lat="50.310022" lon="8.554826"><ele>344.418341</ele><time>2011-04-10T10:37:23.760Z</time>
</trkpt>
<trkpt lat="50.310210" lon="8.554720"><ele>345.418719</ele><time>2011-04-10T10:37:30.758Z</time>
</trkpt>
<trkpt lat="50.310382" lon="8.554573"><ele>346.419098</ele><time>2011-04-10T10:37:36.754Z</time>
</trkpt>
<trkpt lat="50.310559" lon="8.554419"><ele>346.419220</ele><time>2011-04-10T10:37:42.751Z</time>
</trkpt>
<trkpt lat="50.310742" lon="8.554278"><ele>346.419311</ele><time>2011-04-10T10:37:48.754Z</time>
</trkpt>
<trkpt lat="50.310918" lon="8.554144"><ele>346.419433</ele><time>2011-04-10T10:37:54.761Z</time>
</trkpt>
<trkpt lat="50.311091" lon="8.554027"><ele>347.419812</ele><time>2011-04-10T10:38:00.737Z</time>
</trkpt>
<trkpt lat="50.311254" lon="8.553902"><ele>347.419934</ele><time>2011-04-10T10:38:06.752Z</time>
</trkpt>
<trkpt lat="50.311418" lon="8.553784"><ele>348.420281</ele><time>2011-04-10T10:38:12.746Z</time>
</trkpt>
<trkpt lat="50.311596" lon="8.553658"><ele>349.420659</ele><time>2011-04-10T10:38:19.743Z</time>
</trkpt>
<trkpt lat="50.311851" lon="8.553475"><ele>353.421836</ele><time>2011-04-10T10:38:34.744Z</time>
</trkpt>
<trkpt lat="50.312051" lon="8.553337"><ele>353.421989</ele><time>2011-04-10T10:38:43.742Z</time>
</trkpt>
<trkpt lat="50.312219" lon="8.553233"><ele>353.422081</ele><time>2011-04-10T10:38:49.743Z</time>
</trkpt>
<trkpt lat="50.312418" lon="8.553271"><ele>353.422203</ele><time>2011-04-10T10:38:57.745Z</time>
</trkpt>
<trkpt lat="50.312586" lon="8.553609"><ele>356.423032</ele><time>2011-04-10T10:39:07.732Z</time>
</trkpt>
<trkpt lat="50.312725" lon="8.553917"><ele>358.423605</ele><time>2011-04-10T10:39:14.781Z</time>
</trkpt>
<trkpt lat="50.312838" lon="8.554197"><ele>358.423666</ele><time>2011-04-10T10:39:19.756Z</time>
</trkpt>
<trkpt lat="50.312953" lon="8.554479"><ele>360.424209</ele><time>2011-04-10T10:39:24.746Z</time>
</trkpt>
<trkpt lat="50.313045" lon="8.554753"><ele>361.424495</ele><time>2011-04-10T10:39:29.743Z</time>
</trkpt>
<trkpt lat="50.313120" lon="8.555023"><ele>361.424526</ele><time>2011-04-10T10:39:33.732Z</time>
</trkpt>
<trkpt lat="50.313202" lon="8.555315"><ele>361.424556</ele><time>2011-04-10T10:39:38.734Z</time>
</trkpt>
<trkpt lat="50.313281" lon="8.555627"><ele>360.424331</ele><time>2011-04-10T10:39:44.743Z</time>
</trkpt>
<trkpt lat="50.313366" lon="8.555935"><ele>362.424874</ele><time>2011-04-10T10:39:50.732Z</time>
</trkpt>
<trkpt lat="50.313471" lon="8.556226"><ele>362.424904</ele><time>2011-04-10T10:39:56.749Z</time>
</trkpt>
<trkpt lat="50.313579" lon="8.556516"><ele>362.424935</ele><time>2011-04-10T10:40:02.740Z</time>
</trkpt>
<trkpt lat="50.313692" lon="8.556793"><ele>364.425508</ele><time>2011-04-10T10:40:08.735Z</time>
</trkpt>
<trkpt lat="50.313805" lon="8.557072"><ele>363.425313</ele><time>2011-04-10T10:40:14.733Z</time>
</trkpt>
<trkpt lat="50.313903" lon="8.557366"><ele>365.425855</ele><time>2011-04-10T10:40:20.739Z</time>
</trkpt>
<trkpt lat="50.313986" lon="8.557625"><ele>364.425630</ele><time>2011-04-10T10:40:25.754Z</time>
</trkpt>
<trkpt lat="50.314073" lon="8.557931"><ele>367.426429</ele><time>2011-04-10T10:40:31.734Z</time>
</trkpt>
<trkpt lat="50.314155" lon="8.558191"><ele>368.426715</ele><time>2011-04-10T10:40:36.739Z</time>
</trkpt>
<trkpt lat="50.314246" lon="8.558482"><ele>369.427002</ele><time>2011-04-10T10:40:42.797Z</time>
</trkpt>
<trkpt lat="50.314359" lon="8.558706"><ele>370.427288</ele><time>2011-04-10T10:40:54.742Z</time>
</trkpt>
<trkpt lat="50.314539" lon="8.558757"><ele>369.427154</ele><time>2011-04-10T10:41:01.732Z</time>
</trkpt>
<trkpt lat="50.314670" lon="8.558970"><ele>367.426703</ele><time>2011-04-10T10:41:07.737Z</time>
</trkpt>
<trkpt lat="50.314784" lon="8.559240"><ele>367.426734</ele><time>2011-04-10T10:41:13.732Z</time>
</trkpt>
<trkpt lat="50.314878" lon="8.559517"><ele>368.427021</ele><time>2011-04-10T10:41:18.754Z</time>
</trkpt>
<trkpt lat="50.314978" lon="8.559802"><ele>368.427082</ele><time>2011-04-10T10:41:23.764Z</time>
</trkpt>
<trkpt lat="50.315080" lon="8.560106"><ele>369.427368</ele><time>2011-04-10T10:41:28.744Z</time>
</trkpt>
<trkpt lat="50.315139" lon="8.560424"><ele>370.427624</ele><time>2011-04-10T10:41:33.759Z</time>
</trkpt>
<trkpt lat="50.315124" lon="8.560769"><ele>369.427338</ele><time>2011-04-10T10:41:38.791Z</time>
</trkpt>
<trkpt lat="50.315098" lon="8.561101"><ele>368.427021</ele><time>2011-04-10T10:41:43.742Z</time>
</trkpt>
<trkpt lat="50.315065" lon="8.561413"><ele>367.426734</ele><time>2011-04-10T10:41:48.740Z</time>
</trkpt>
<trkpt lat="50.315028" lon="8.561718"><ele>366.426447</ele><time>2011-04-10T10:41:53.744Z</time>
</trkpt>
<trkpt lat="50.314998" lon="8.562022"><ele>366.426386</ele><time>2011-04-10T10:41:58.739Z</time>
</trkpt>
<trkpt lat="50.314970" lon="8.562324"><ele>366.426356</ele><time>2011-04-10T10:42:03.735Z</time>
</trkpt>
<trkpt lat="50.314931" lon="8.562650"><ele>369.427063</ele><time>2011-04-10T10:42:08.782Z</time>
</trkpt>
<trkpt lat="50.314896" lon="8.562984"><ele>371.427545</ele><time>2011-04-10T10:42:13.744Z</time>
</trkpt>
<trkpt lat="50.314859" lon="8.563327"><ele>372.427740</ele><time>2011-04-10T10:42:18.742Z</time>
</trkpt>
<trkpt lat="50.314829" lon="8.563609"><ele>375.428477</ele><time>2011-04-10T10:42:22.743Z</time>
</trkpt>
<trkpt lat="50.314794" lon="8.563939"><ele>376.428672</ele><time>2011-04-10T10:42:26.738Z</time>
</trkpt>
<trkpt lat="50.314749" lon="8.564277"><ele>376.428642</ele><time>2011-04-10T10:42:30.744Z</time>
</trkpt>
<trkpt lat="50.314705" lon="8.564598"><ele>377.428837</ele><time>2011-04-10T10:42:34.740Z</time>
</trkpt>
<trkpt lat="50.314679" lon="8.564932"><ele>376.428520</ele><time>2011-04-10T10:42:38.787Z</time>
</trkpt>
<trkpt lat="50.314658" lon="8.565251"><ele>375.428233</ele><time>2011-04-10T10:42:42.750Z</time>
</trkpt>
<trkpt lat="50.314635" lon="8.565549"><ele>373.427690</ele><time>2011-04-10T10:42:46.740Z</time>
</trkpt>
<trkpt lat="50.314608" lon="8.565847"><ele>371.427148</ele><time>2011-04-10T10:42:50.740Z</time>
</trkpt>
<trkpt lat="50.314580" lon="8.566138"><ele>371.427117</ele><time>2011-04-10T10:42:54.742Z</time>
</trkpt>
<trkpt lat="50.314548" lon="8.566484"><ele>372.427312</ele><time>2011-04-10T10:42:59.740Z</time>
</trkpt>
<trkpt lat="50.314506" lon="8.566828"><ele>372.427251</ele><time>2011-04-10T10:43:04.736Z</time>
</trkpt>
<trkpt lat="50.314486" lon="8.567172"><ele>371.426965</ele><time>2011-04-10T10:43:09.742Z</time>
</trkpt>
<trkpt lat="50.314455" lon="8.567516"><ele>371.426934</ele><time>2011-04-10T10:43:14.744Z</time>
</trkpt>
<trkpt lat="50.314421" lon="8.567848"><ele>372.427129</ele><time>2011-04-10T10:43:19.737Z</time>
</trkpt>
<trkpt lat="50.314382" lon="8.568180"><ele>373.427324</ele><time>2011-04-10T10:43:24.732Z</time>
</trkpt>
<trkpt lat="50.314337" lon="8.568524"><ele>373.427294</ele><time>2011-04-10T10:43:29.742Z</time>
</trkpt>
<trkpt lat="50.314306" lon="8.568865"><ele>371.426720</ele><time>2011-04-10T10:43:34.731Z</time>
</trkpt>
<trkpt lat="50.314267" lon="8.569205"><ele>371.426690</ele><time>2011-04-10T10:43:39.786Z</time>
</trkpt>
<trkpt lat="50.314213" lon="8.569544"><ele>373.427141</ele><time>2011-04-10T10:43:44.734Z</time>
</trkpt>
<trkpt lat="50.314163" lon="8.569820"><ele>374.427336</ele><time>2011-04-10T10:43:48.748Z</time>
</trkpt>
<trkpt lat="50.314101" lon="8.570156"><ele>375.427531</ele><time>2011-04-10T10:43:53.737Z</time>
</trkpt>
<trkpt lat="50.314056" lon="8.570494"><ele>373.426958</ele><time>2011-04-10T10:43:58.747Z</time>
</trkpt>
<trkpt lat="50.313991" lon="8.570813"><ele>372.426641</ele><time>2011-04-10T10:44:03.742Z</time>
</trkpt>
<trkpt lat="50.313932" lon="8.571134"><ele>373.426836</ele><time>2011-04-10T10:44:08.740Z</time>
</trkpt>
<trkpt lat="50.313869" lon="8.571464"><ele>374.427031</ele><time>2011-04-10T10:44:13.739Z</time>
</trkpt>
<trkpt lat="50.313812" lon="8.571797"><ele>373.426714</ele><time>2011-04-10T10:44:18.740Z</time>
</trkpt>
<trkpt lat="50.313752" lon="8.572132"><ele>372.426396</ele><time>2011-04-10T10:44:23.739Z</time>
</trkpt>
<trkpt lat="50.313705" lon="8.572407"><ele>371.426079</ele><time>2011-04-10T10:44:27.744Z</time>
</trkpt>
<trkpt lat="50.313660" lon="8.572694"><ele>370.425793</ele><time>2011-04-10T10:44:31.732Z</time>
</trkpt>
<trkpt lat="50.313601" lon="8.572983"><ele>370.425732</ele><time>2011-04-10T10:44:35.737Z</time>
</trkpt>
<trkpt lat="50.313552" lon="8.573271"><ele>370.425671</ele><time>2011-04-10T10:44:39.740Z</time>
</trkpt>
<trkpt lat="50.313503" lon="8.573567"><ele>370.425610</ele><time>2011-04-10T10:44:43.791Z</time>
</trkpt>
<trkpt lat="50.313457" lon="8.573868"><ele>370.425579</ele><time>2011-04-10T10:44:47.750Z</time>
</trkpt>
<trkpt lat="50.313411" lon="8.574153"><ele>370.425518</ele><time>2011-04-10T10:44:51.740Z</time>
</trkpt>
<trkpt lat="50.313360" lon="8.574490"><ele>370.425457</ele><time>2011-04-10T10:44:56.739Z</time>
</trkpt>
<trkpt lat="50.313308" lon="8.574815"><ele>371.425652</ele><time>2011-04-10T10:45:01.930Z</time>
</trkpt>
<trkpt lat="50.313251" lon="8.575135"><ele>370.425335</ele><time>2011-04-10T10:45:06.739Z</time>
</trkpt>
<trkpt lat="50.313203" lon="8.575425"><ele>371.425560</ele><time>2011-04-10T10:45:11.753Z</time>
</trkpt>
<trkpt lat="50.313151" lon="8.575714"><ele>372.425755</ele><time>2011-04-10T10:45:17.739Z</time>
</trkpt>
<trkpt lat="50.313098" lon="8.576026"><ele>371.425438</ele><time>2011-04-10T10:45:25.744Z</time>
</trkpt>
<trkpt lat="50.313045" lon="8.576334"><ele>371.425377</ele><time>2011-04-10T10:45:33.788Z</time>
</trkpt>
<trkpt lat="50.313014" lon="8.576619"><ele>371.425347</ele><time>2011-04-10T10:45:40.728Z</time>
</trkpt>
<trkpt lat="50.312977" lon="8.576912"><ele>372.425542</ele><time>2011-04-10T10:45:47.742Z</time>
</trkpt>
<trkpt lat="50.312929" lon="8.577221"><ele>374.426023</ele><time>2011-04-10T10:45:54.742Z</time>
</trkpt>
<trkpt lat="50.312881" lon="8.577522"><ele>375.426218</ele><time>2011-04-10T10:46:01.731Z</time>
</trkpt>
<trkpt lat="50.312824" lon="8.577815"><ele>375.426157</ele><time>2011-04-10T10:46:09.729Z</time>
</trkpt>
<trkpt lat="50.312758" lon="8.578129"><ele>377.426608</ele><time>2011-04-10T10:46:20.740Z</time>
</trkpt>
<trkpt lat="50.312744" lon="8.578428"><ele>378.426834</ele><time>2011-04-10T10:46:30.852Z</time>
</trkpt>
<trkpt lat="50.312653" lon="8.578706"><ele>377.426517</ele><time>2011-04-10T10:46:39.994Z</time>
</trkpt>
<trkpt lat="50.312536" lon="8.578990"><ele>377.426395</ele><time>2011-04-10T10:46:47.732Z</time>
</trkpt>
<trkpt lat="50.312431" lon="8.579233"><ele>376.426078</ele><time>2011-04-10T10:46:54.731Z</time>
</trkpt>
<trkpt lat="50.312289" lon="8.579626"><ele>378.426468</ele><time>2011-04-10T10:47:04.733Z</time>
</trkpt>
<trkpt lat="50.312156" lon="8.579903"><ele>381.427144</ele><time>2011-04-10T10:47:12.687Z</time>
</trkpt>
<trkpt lat="50.312036" lon="8.580159"><ele>382.427309</ele><time>2011-04-10T10:47:18.740Z</time>
</trkpt>
<trkpt lat="50.311893" lon="8.580435"><ele>383.427443</ele><time>2011-04-10T10:47:23.733Z</time>
</trkpt>
<trkpt lat="50.311761" lon="8.580666"><ele>383.427351</ele><time>2011-04-10T10:47:27.728Z</time>
</trkpt>
<trkpt lat="50.311634" lon="8.580898"><ele>383.427260</ele><time>2011-04-10T10:47:31.863Z</time>
</trkpt>
<trkpt lat="50.311519" lon="8.581134"><ele>384.427424</ele><time>2011-04-10T10:47:35.743Z</time>
</trkpt>
<trkpt lat="50.311393" lon="8.581378"><ele>386.427845</ele><time>2011-04-10T10:47:39.738Z</time>
</trkpt>
<trkpt lat="50.311257" lon="8.581646"><ele>385.427466</ele><time>2011-04-10T10:47:43.735Z</time>
</trkpt>
<trkpt lat="50.311207" lon="8.581940"><ele>383.426924</ele><time>2011-04-10T10:47:47.734Z</time>
</trkpt>
<trkpt lat="50.311216" lon="8.582228"><ele>382.426637</ele><time>2011-04-10T10:47:51.730Z</time>
</trkpt>
<trkpt lat="50.311257" lon="8.582561"><ele>381.426381</ele><time>2011-04-10T10:47:56.741Z</time>
</trkpt>
<trkpt lat="50.311307" lon="8.582872"><ele>382.426637</ele><time>2011-04-10T10:48:01.737Z</time>
</trkpt>
<trkpt lat="50.311318" lon="8.583204"><ele>381.426381</ele><time>2011-04-10T10:48:06.749Z</time>
</trkpt>
<trkpt lat="50.311249" lon="8.583502"><ele>382.426576</ele><time>2011-04-10T10:48:10.753Z</time>
</trkpt>
<trkpt lat="50.311148" lon="8.583832"><ele>382.426485</ele><time>2011-04-10T10:48:14.755Z</time>
</trkpt>
<trkpt lat="50.311075" lon="8.584102"><ele>382.426423</ele><time>2011-04-10T10:48:17.748Z</time>
</trkpt>
<trkpt lat="50.311000" lon="8.584375"><ele>383.426588</ele><time>2011-04-10T10:48:20.761Z</time>
</trkpt>
<trkpt lat="50.310931" lon="8.584637"><ele>383.426527</ele><time>2011-04-10T10:48:23.787Z</time>
</trkpt>
<trkpt lat="50.310844" lon="8.584963"><ele>383.426466</ele><time>2011-04-10T10:48:27.739Z</time>
</trkpt>
<trkpt lat="50.310760" lon="8.585281"><ele>382.426149</ele><time>2011-04-10T10:48:31.745Z</time>
</trkpt>
<trkpt lat="50.310666" lon="8.585568"><ele>381.425801</ele><time>2011-04-10T10:48:35.736Z</time>
</trkpt>
<trkpt lat="50.310454" lon="8.585730"><ele>382.425905</ele><time>2011-04-10T10:48:39.740Z</time>
</trkpt>
<trkpt lat="50.310252" lon="8.585822"><ele>383.426039</ele><time>2011-04-10T10:48:42.738Z</time>
</trkpt>
<trkpt lat="50.310040" lon="8.585883"><ele>383.425916</ele><time>2011-04-10T10:48:45.747Z</time>
</trkpt>
<trkpt lat="50.309840" lon="8.585979"><ele>383.425794</ele><time>2011-04-10T10:48:48.733Z</time>
</trkpt>
<trkpt lat="50.309657" lon="8.586110"><ele>383.425672</ele><time>2011-04-10T10:48:51.735Z</time>
</trkpt>
<trkpt lat="50.309489" lon="8.586280"><ele>382.425294</ele><time>2011-04-10T10:48:54.736Z</time>
</trkpt>
<trkpt lat="50.309352" lon="8.586522"><ele>382.425172</ele><time>2011-04-10T10:48:57.739Z</time>
</trkpt>
<trkpt lat="50.309215" lon="8.586774"><ele>381.424824</ele><time>2011-04-10T10:49:00.733Z</time>
</trkpt>
<trkpt lat="50.309090" lon="8.587036"><ele>380.424477</ele><time>2011-04-10T10:49:03.740Z</time>
</trkpt>
<trkpt lat="50.308994" lon="8.587317"><ele>380.424385</ele><time>2011-04-10T10:49:06.739Z</time>
</trkpt>
<trkpt lat="50.308913" lon="8.587617"><ele>380.424324</ele><time>2011-04-10T10:49:09.736Z</time>
</trkpt>
<trkpt lat="50.308825" lon="8.587933"><ele>379.423976</ele><time>2011-04-10T10:49:12.732Z</time>
</trkpt>
<trkpt lat="50.308736" lon="8.588240"><ele>378.423659</ele><time>2011-04-10T10:49:15.733Z</time>
</trkpt>
<trkpt lat="50.308658" lon="8.588555"><ele>377.423342</ele><time>2011-04-10T10:49:18.736Z</time>
</trkpt>
<trkpt lat="50.308572" lon="8.588879"><ele>376.422994</ele><time>2011-04-10T10:49:21.738Z</time>
</trkpt>
<trkpt lat="50.308489" lon="8.589207"><ele>375.422647</ele><time>2011-04-10T10:49:24.730Z</time>
</trkpt>
<trkpt lat="50.308413" lon="8.589534"><ele>373.422074</ele><time>2011-04-10T10:49:27.742Z</time>
</trkpt>
<trkpt lat="50.308350" lon="8.589868"><ele>372.421757</ele><time>2011-04-10T10:49:30.739Z</time>
</trkpt>
<trkpt lat="50.308307" lon="8.590215"><ele>371.421439</ele><time>2011-04-10T10:49:33.741Z</time>
</trkpt>
<trkpt lat="50.308284" lon="8.590567"><ele>371.421409</ele><time>2011-04-10T10:49:36.733Z</time>
</trkpt>
<trkpt lat="50.308256" lon="8.590914"><ele>370.421122</ele><time>2011-04-10T10:49:39.738Z</time>
</trkpt>
<trkpt lat="50.308238" lon="8.591241"><ele>369.420805</ele><time>2011-04-10T10:49:42.733Z</time>
</trkpt>
<trkpt lat="50.308222" lon="8.591570"><ele>368.420519</ele><time>2011-04-10T10:49:45.738Z</time>
</trkpt>
<trkpt lat="50.308213" lon="8.591886"><ele>368.420488</ele><time>2011-04-10T10:49:48.741Z</time>
</trkpt>
<trkpt lat="50.308185" lon="8.592184"><ele>367.420201</ele><time>2011-04-10T10:49:51.741Z</time>
</trkpt>
<trkpt lat="50.308129" lon="8.592467"><ele>367.420140</ele><time>2011-04-10T10:49:54.774Z</time>
</trkpt>
<trkpt lat="50.308038" lon="8.592720"><ele>366.419823</ele><time>2011-04-10T10:49:57.781Z</time>
</trkpt>
<trkpt lat="50.307910" lon="8.592948"><ele>366.419732</ele><time>2011-04-10T10:50:00.751Z</time>
</trkpt>
<trkpt lat="50.307784" lon="8.593187"><ele>366.419610</ele><time>2011-04-10T10:50:03.730Z</time>
</trkpt>
<trkpt lat="50.307724" lon="8.593513"><ele>367.419805</ele><time>2011-04-10T10:50:07.733Z</time>
</trkpt>
<trkpt lat="50.307892" lon="8.593996"><ele>374.325806</ele><time>2011-04-10T10:52:32.761Z</time>
</trkpt>
<trkpt lat="50.308048" lon="8.594191"><ele>372.325897</ele><time>2011-04-10T10:52:38.751Z</time>
</trkpt>
<trkpt lat="50.308148" lon="8.594445"><ele>371.325928</ele><time>2011-04-10T10:52:43.753Z</time>
</trkpt>
<trkpt lat="50.308183" lon="8.594736"><ele>370.325928</ele><time>2011-04-10T10:52:48.769Z</time>
</trkpt>
<trkpt lat="50.308136" lon="8.595051"><ele>369.325897</ele><time>2011-04-10T10:52:54.754Z</time>
</trkpt>
<trkpt lat="50.308086" lon="8.595375"><ele>369.325836</ele><time>2011-04-10T10:53:00.898Z</time>
</trkpt>
<trkpt lat="50.308044" lon="8.595679"><ele>370.325775</ele><time>2011-04-10T10:53:06.805Z</time>
</trkpt>
<trkpt lat="50.308000" lon="8.595968"><ele>371.325745</ele><time>2011-04-10T10:53:12.756Z</time>
</trkpt>
<trkpt lat="50.307968" lon="8.596249"><ele>374.325684</ele><time>2011-04-10T10:53:18.765Z</time>
</trkpt>
<trkpt lat="50.307939" lon="8.596546"><ele>374.325653</ele><time>2011-04-10T10:53:24.755Z</time>
</trkpt>
<trkpt lat="50.307932" lon="8.596864"><ele>375.325623</ele><time>2011-04-10T10:53:30.754Z</time>
</trkpt>
<trkpt lat="50.307937" lon="8.597188"><ele>378.325592</ele><time>2011-04-10T10:53:36.757Z</time>
</trkpt>
<trkpt lat="50.307955" lon="8.597511"><ele>379.325592</ele><time>2011-04-10T10:53:42.877Z</time>
</trkpt>
<trkpt lat="50.307975" lon="8.597818"><ele>380.325562</ele><time>2011-04-10T10:53:48.760Z</time>
</trkpt>
<trkpt lat="50.307995" lon="8.598128"><ele>379.325562</ele><time>2011-04-10T10:53:54.749Z</time>
</trkpt>
<trkpt lat="50.308008" lon="8.598432"><ele>378.325562</ele><time>2011-04-10T10:54:00.747Z</time>
</trkpt>
<trkpt lat="50.308017" lon="8.598740"><ele>379.325531</ele><time>2011-04-10T10:54:06.747Z</time>
</trkpt>
<trkpt lat="50.308036" lon="8.599055"><ele>378.325500</ele><time>2011-04-10T10:54:12.757Z</time>
</trkpt>
<trkpt lat="50.308059" lon="8.599369"><ele>377.325500</ele><time>2011-04-10T10:54:18.821Z</time>
</trkpt>
<trkpt lat="50.308083" lon="8.599674"><ele>378.325500</ele><time>2011-04-10T10:54:24.752Z</time>
</trkpt>
<trkpt lat="50.308101" lon="8.599976"><ele>379.325470</ele><time>2011-04-10T10:54:30.760Z</time>
</trkpt>
<trkpt lat="50.308112" lon="8.600312"><ele>380.325470</ele><time>2011-04-10T10:54:36.757Z</time>
</trkpt>
<trkpt lat="50.308118" lon="8.600596"><ele>380.325439</ele><time>2011-04-10T10:54:41.746Z</time>
</trkpt>
<trkpt lat="50.308130" lon="8.600928"><ele>380.325409</ele><time>2011-04-10T10:54:47.803Z</time>
</trkpt>
<trkpt lat="50.308154" lon="8.601221"><ele>381.325409</ele><time>2011-04-10T10:54:53.753Z</time>
</trkpt>
<trkpt lat="50.308184" lon="8.601521"><ele>381.325409</ele><time>2011-04-10T10:55:00.752Z</time>
</trkpt>
<trkpt lat="50.308204" lon="8.601821"><ele>381.325378</ele><time>2011-04-10T10:55:07.740Z</time>
</trkpt>
<trkpt lat="50.308236" lon="8.602137"><ele>382.325378</ele><time>2011-04-10T10:55:14.742Z</time>
</trkpt>
<trkpt lat="50.308290" lon="8.602450"><ele>384.325409</ele><time>2011-04-10T10:55:20.758Z</time>
</trkpt>
<trkpt lat="50.308348" lon="8.602741"><ele>383.325409</ele><time>2011-04-10T10:55:25.745Z</time>
</trkpt>
<trkpt lat="50.308403" lon="8.603033"><ele>383.325409</ele><time>2011-04-10T10:55:30.744Z</time>
</trkpt>
<trkpt lat="50.308451" lon="8.603336"><ele>384.325439</ele><time>2011-04-10T10:55:35.747Z</time>
</trkpt>
<trkpt lat="50.308488" lon="8.603659"><ele>385.325439</ele><time>2011-04-10T10:55:40.749Z</time>
</trkpt>
<trkpt lat="50.308488" lon="8.603978"><ele>387.325409</ele><time>2011-04-10T10:55:45.756Z</time>
</trkpt>
<trkpt lat="50.308460" lon="8.604274"><ele>387.325348</ele><time>2011-04-10T10:55:50.749Z</time>
</trkpt>
<trkpt lat="50.308459" lon="8.604569"><ele>388.325348</ele><time>2011-04-10T10:55:55.753Z</time>
</trkpt>
<trkpt lat="50.308456" lon="8.604890"><ele>388.325317</ele><time>2011-04-10T10:56:00.753Z</time>
</trkpt>
<trkpt lat="50.308448" lon="8.605215"><ele>389.325287</ele><time>2011-04-10T10:56:05.736Z</time>
</trkpt>
<trkpt lat="50.308432" lon="8.605519"><ele>389.325256</ele><time>2011-04-10T10:56:10.737Z</time>
</trkpt>
<trkpt lat="50.308403" lon="8.605849"><ele>390.325195</ele><time>2011-04-10T10:56:16.733Z</time>
</trkpt>
<trkpt lat="50.308385" lon="8.606149"><ele>390.325165</ele><time>2011-04-10T10:56:22.738Z</time>
</trkpt>
<trkpt lat="50.308369" lon="8.606433"><ele>392.325134</ele><time>2011-04-10T10:56:28.773Z</time>
</trkpt>
<trkpt lat="50.308350" lon="8.606734"><ele>391.325104</ele><time>2011-04-10T10:56:35.749Z</time>
</trkpt>
<trkpt lat="50.308345" lon="8.607062"><ele>391.325073</ele><time>2011-04-10T10:56:42.745Z</time>
</trkpt>
<trkpt lat="50.308338" lon="8.607374"><ele>390.325043</ele><time>2011-04-10T10:56:48.737Z</time>
</trkpt>
<trkpt lat="50.308328" lon="8.607705"><ele>391.325012</ele><time>2011-04-10T10:56:54.742Z</time>
</trkpt>
<trkpt lat="50.308324" lon="8.608070"><ele>391.324982</ele><time>2011-04-10T10:56:59.737Z</time>
</trkpt>
<trkpt lat="50.308315" lon="8.608356"><ele>391.324951</ele><time>2011-04-10T10:57:02.735Z</time>
</trkpt>
<trkpt lat="50.308304" lon="8.608640"><ele>391.324921</ele><time>2011-04-10T10:57:05.732Z</time>
</trkpt>
<trkpt lat="50.308300" lon="8.608997"><ele>391.324890</ele><time>2011-04-10T10:57:09.738Z</time>
</trkpt>
<trkpt lat="50.308292" lon="8.609346"><ele>390.324860</ele><time>2011-04-10T10:57:13.729Z</time>
</trkpt>
<trkpt lat="50.308295" lon="8.609684"><ele>389.324829</ele><time>2011-04-10T10:57:17.725Z</time>
</trkpt>
<trkpt lat="50.308300" lon="8.610014"><ele>389.324799</ele><time>2011-04-10T10:57:21.725Z</time>
</trkpt>
<trkpt lat="50.308294" lon="8.610338"><ele>388.324768</ele><time>2011-04-10T10:57:25.733Z</time>
</trkpt>
<trkpt lat="50.308273" lon="8.610658"><ele>388.324738</ele><time>2011-04-10T10:57:29.735Z</time>
</trkpt>
<trkpt lat="50.308232" lon="8.610979"><ele>388.324707</ele><time>2011-04-10T10:57:33.728Z</time>
</trkpt>
<trkpt lat="50.308178" lon="8.611300"><ele>387.324646</ele><time>2011-04-10T10:57:37.727Z</time>
</trkpt>
<trkpt lat="50.308125" lon="8.611636"><ele>386.324585</ele><time>2011-04-10T10:57:41.749Z</time>
</trkpt>
<trkpt lat="50.308074" lon="8.611965"><ele>385.324524</ele><time>2011-04-10T10:57:45.760Z</time>
</trkpt>
<trkpt lat="50.308030" lon="8.612272"><ele>384.324463</ele><time>2011-04-10T10:57:49.727Z</time>
</trkpt>
<trkpt lat="50.307980" lon="8.612564"><ele>383.324432</ele><time>2011-04-10T10:57:53.739Z</time>
</trkpt>
<trkpt lat="50.307841" lon="8.612816"><ele>385.324310</ele><time>2011-04-10T10:57:58.731Z</time>
</trkpt>
<trkpt lat="50.307653" lon="8.612928"><ele>390.324188</ele><time>2011-04-10T10:58:02.739Z</time>
</trkpt>
<trkpt lat="50.307428" lon="8.613046"><ele>392.324036</ele><time>2011-04-10T10:58:06.729Z</time>
</trkpt>
<trkpt lat="50.307252" lon="8.613135"><ele>393.323944</ele><time>2011-04-10T10:58:09.736Z</time>
</trkpt>
<trkpt lat="50.307046" lon="8.613233"><ele>393.323792</ele><time>2011-04-10T10:58:13.736Z</time>
</trkpt>
<trkpt lat="50.306875" lon="8.613110"><ele>393.323700</ele><time>2011-04-10T10:58:18.729Z</time>
</trkpt>
<trkpt lat="50.306825" lon="8.612819"><ele>394.323700</ele><time>2011-04-10T10:58:22.727Z</time>
</trkpt>
<trkpt lat="50.306773" lon="8.612469"><ele>395.323700</ele><time>2011-04-10T10:58:26.735Z</time>
</trkpt>
<trkpt lat="50.306724" lon="8.612184"><ele>395.323700</ele><time>2011-04-10T10:58:29.740Z</time>
</trkpt>
<trkpt lat="50.306667" lon="8.611883"><ele>394.323669</ele><time>2011-04-10T10:58:32.732Z</time>
</trkpt>
<trkpt lat="50.306606" lon="8.611581"><ele>393.323669</ele><time>2011-04-10T10:58:35.734Z</time>
</trkpt>
<trkpt lat="50.306550" lon="8.611267"><ele>393.323669</ele><time>2011-04-10T10:58:38.730Z</time>
</trkpt>
<trkpt lat="50.306495" lon="8.610950"><ele>392.323639</ele><time>2011-04-10T10:58:41.727Z</time>
</trkpt>
<trkpt lat="50.306439" lon="8.610639"><ele>392.323639</ele><time>2011-04-10T10:58:44.724Z</time>
</trkpt>
<trkpt lat="50.306410" lon="8.610329"><ele>391.323639</ele><time>2011-04-10T10:58:47.725Z</time>
</trkpt>
<trkpt lat="50.306423" lon="8.610015"><ele>390.323669</ele><time>2011-04-10T10:58:50.860Z</time>
</trkpt>
<trkpt lat="50.306436" lon="8.609704"><ele>389.323730</ele><time>2011-04-10T10:58:53.733Z</time>
</trkpt>
<trkpt lat="50.306449" lon="8.609394"><ele>388.323730</ele><time>2011-04-10T10:58:56.738Z</time>
</trkpt>
<trkpt lat="50.306466" lon="8.609084"><ele>387.323792</ele><time>2011-04-10T10:58:59.735Z</time>
</trkpt>
<trkpt lat="50.306481" lon="8.608764"><ele>387.323822</ele><time>2011-04-10T10:59:02.738Z</time>
</trkpt>
<trkpt lat="50.306502" lon="8.608438"><ele>386.323853</ele><time>2011-04-10T10:59:05.741Z</time>
</trkpt>
<trkpt lat="50.306516" lon="8.608122"><ele>385.323883</ele><time>2011-04-10T10:59:08.734Z</time>
</trkpt>
<trkpt lat="50.306526" lon="8.607834"><ele>384.323914</ele><time>2011-04-10T10:59:11.740Z</time>
</trkpt>
<trkpt lat="50.306539" lon="8.607492"><ele>383.323944</ele><time>2011-04-10T10:59:15.737Z</time>
</trkpt>
<trkpt lat="50.306557" lon="8.607147"><ele>382.323975</ele><time>2011-04-10T10:59:19.729Z</time>
</trkpt>
<trkpt lat="50.306561" lon="8.606773"><ele>384.324005</ele><time>2011-04-10T10:59:23.727Z</time>
</trkpt>
<trkpt lat="50.306565" lon="8.606467"><ele>384.324036</ele><time>2011-04-10T10:59:26.729Z</time>
</trkpt>
<trkpt lat="50.306578" lon="8.606137"><ele>385.324066</ele><time>2011-04-10T10:59:29.736Z</time>
</trkpt>
<trkpt lat="50.306587" lon="8.605806"><ele>384.324097</ele><time>2011-04-10T10:59:32.738Z</time>
</trkpt>
<trkpt lat="50.306600" lon="8.605479"><ele>383.324158</ele><time>2011-04-10T10:59:35.740Z</time>
</trkpt>
<trkpt lat="50.306617" lon="8.605153"><ele>382.324188</ele><time>2011-04-10T10:59:38.723Z</time>
</trkpt>
<trkpt lat="50.306621" lon="8.604823"><ele>380.324219</ele><time>2011-04-10T10:59:41.728Z</time>
</trkpt>
<trkpt lat="50.306615" lon="8.604499"><ele>381.324219</ele><time>2011-04-10T10:59:44.729Z</time>
</trkpt>
<trkpt lat="50.306604" lon="8.604170"><ele>382.324249</ele><time>2011-04-10T10:59:47.732Z</time>
</trkpt>
<trkpt lat="50.306582" lon="8.603812"><ele>383.324280</ele><time>2011-04-10T10:59:50.738Z</time>
</trkpt>
<trkpt lat="50.306544" lon="8.603414"><ele>383.324280</ele><time>2011-04-10T10:59:53.738Z</time>
</trkpt>
<trkpt lat="50.306509" lon="8.603013"><ele>383.324280</ele><time>2011-04-10T10:59:56.737Z</time>
</trkpt>
<trkpt lat="50.306483" lon="8.602643"><ele>383.324280</ele><time>2011-04-10T10:59:59.737Z</time>
</trkpt>
<trkpt lat="50.306454" lon="8.602305"><ele>382.324310</ele><time>2011-04-10T11:00:02.733Z</time>
</trkpt>
<trkpt lat="50.306434" lon="8.601970"><ele>381.324310</ele><time>2011-04-10T11:00:05.738Z</time>
</trkpt>
<trkpt lat="50.306410" lon="8.601630"><ele>381.324341</ele><time>2011-04-10T11:00:08.739Z</time>
</trkpt>
<trkpt lat="50.306387" lon="8.601262"><ele>381.324341</ele><time>2011-04-10T11:00:11.736Z</time>
</trkpt>
<trkpt lat="50.306373" lon="8.600885"><ele>380.324371</ele><time>2011-04-10T11:00:14.734Z</time>
</trkpt>
<trkpt lat="50.306358" lon="8.600535"><ele>380.324402</ele><time>2011-04-10T11:00:17.728Z</time>
</trkpt>
<trkpt lat="50.306341" lon="8.600220"><ele>379.324402</ele><time>2011-04-10T11:00:20.729Z</time>
</trkpt>
<trkpt lat="50.306323" lon="8.599896"><ele>378.324402</ele><time>2011-04-10T11:00:23.727Z</time>
</trkpt>
<trkpt lat="50.306303" lon="8.599570"><ele>378.324432</ele><time>2011-04-10T11:00:26.740Z</time>
</trkpt>
<trkpt lat="50.306285" lon="8.599252"><ele>378.324432</ele><time>2011-04-10T11:00:29.732Z</time>
</trkpt>
<trkpt lat="50.306267" lon="8.598948"><ele>378.324463</ele><time>2011-04-10T11:00:32.737Z</time>
</trkpt>
<trkpt lat="50.306249" lon="8.598650"><ele>378.324463</ele><time>2011-04-10T11:00:35.737Z</time>
</trkpt>
<trkpt lat="50.306200" lon="8.598364"><ele>377.324463</ele><time>2011-04-10T11:00:38.732Z</time>
</trkpt>
<trkpt lat="50.306124" lon="8.598064"><ele>376.324432</ele><time>2011-04-10T11:00:41.731Z</time>
</trkpt>
<trkpt lat="50.306032" lon="8.597720"><ele>375.324402</ele><time>2011-04-10T11:00:44.787Z</time>
</trkpt>
<trkpt lat="50.305928" lon="8.597334"><ele>376.324371</ele><time>2011-04-10T11:00:47.734Z</time>
</trkpt>
<trkpt lat="50.305806" lon="8.596927"><ele>376.324341</ele><time>2011-04-10T11:00:50.749Z</time>
</trkpt>
<trkpt lat="50.305653" lon="8.596538"><ele>376.324280</ele><time>2011-04-10T11:00:53.873Z</time>
</trkpt>
<trkpt lat="50.305481" lon="8.596163"><ele>376.324188</ele><time>2011-04-10T11:00:56.734Z</time>
</trkpt>
<trkpt lat="50.305294" lon="8.595794"><ele>376.324127</ele><time>2011-04-10T11:00:59.746Z</time>
</trkpt>
<trkpt lat="50.305119" lon="8.595441"><ele>375.324036</ele><time>2011-04-10T11:01:02.740Z</time>
</trkpt>
<trkpt lat="50.305006" lon="8.595207"><ele>375.324005</ele><time>2011-04-10T11:01:04.742Z</time>
</trkpt>
<trkpt lat="50.304854" lon="8.594862"><ele>374.323914</ele><time>2011-04-10T11:01:07.727Z</time>
</trkpt>
<trkpt lat="50.304717" lon="8.594504"><ele>373.323883</ele><time>2011-04-10T11:01:10.729Z</time>
</trkpt>
<trkpt lat="50.304626" lon="8.594250"><ele>373.323853</ele><time>2011-04-10T11:01:12.732Z</time>
</trkpt>
<trkpt lat="50.304533" lon="8.593982"><ele>372.323792</ele><time>2011-04-10T11:01:14.739Z</time>
</trkpt>
<trkpt lat="50.304379" lon="8.593562"><ele>371.323730</ele><time>2011-04-10T11:01:17.732Z</time>
</trkpt>
<trkpt lat="50.304223" lon="8.593136"><ele>369.323669</ele><time>2011-04-10T11:01:20.737Z</time>
</trkpt>
<trkpt lat="50.304082" lon="8.592712"><ele>368.323639</ele><time>2011-04-10T11:01:23.735Z</time>
</trkpt>
<trkpt lat="50.303939" lon="8.592313"><ele>366.323578</ele><time>2011-04-10T11:01:26.738Z</time>
</trkpt>
<trkpt lat="50.303786" lon="8.591975"><ele>364.323517</ele><time>2011-04-10T11:01:29.739Z</time>
</trkpt>
<trkpt lat="50.303637" lon="8.591675"><ele>363.323456</ele><time>2011-04-10T11:01:32.724Z</time>
</trkpt>
<trkpt lat="50.303507" lon="8.591400"><ele>362.323395</ele><time>2011-04-10T11:01:35.736Z</time>
</trkpt>
<trkpt lat="50.303410" lon="8.591096"><ele>361.323364</ele><time>2011-04-10T11:01:38.734Z</time>
</trkpt>
<trkpt lat="50.303382" lon="8.590757"><ele>359.323364</ele><time>2011-04-10T11:01:41.731Z</time>
</trkpt>
<trkpt lat="50.303391" lon="8.590460"><ele>358.323395</ele><time>2011-04-10T11:01:44.727Z</time>
</trkpt>
<trkpt lat="50.303459" lon="8.590149"><ele>357.323456</ele><time>2011-04-10T11:01:48.726Z</time>
</trkpt>
<trkpt lat="50.303539" lon="8.589886"><ele>356.323517</ele><time>2011-04-10T11:01:52.730Z</time>
</trkpt>
<trkpt lat="50.303621" lon="8.589606"><ele>354.323608</ele><time>2011-04-10T11:01:57.737Z</time>
</trkpt>
<trkpt lat="50.303686" lon="8.589296"><ele>354.323669</ele><time>2011-04-10T11:02:15.740Z</time>
</trkpt>
<trkpt lat="50.303743" lon="8.589005"><ele>354.323730</ele><time>2011-04-10T11:02:20.723Z</time>
</trkpt>
<trkpt lat="50.303771" lon="8.588698"><ele>354.323761</ele><time>2011-04-10T11:02:24.763Z</time>
</trkpt>
<trkpt lat="50.303798" lon="8.588339"><ele>354.323792</ele><time>2011-04-10T11:02:28.731Z</time>
</trkpt>
<trkpt lat="50.303810" lon="8.588009"><ele>355.323853</ele><time>2011-04-10T11:02:31.744Z</time>
</trkpt>
<trkpt lat="50.303796" lon="8.587664"><ele>354.323853</ele><time>2011-04-10T11:02:34.731Z</time>
</trkpt>
<trkpt lat="50.303767" lon="8.587320"><ele>353.323853</ele><time>2011-04-10T11:02:37.722Z</time>
</trkpt>
<trkpt lat="50.303712" lon="8.586984"><ele>352.323853</ele><time>2011-04-10T11:02:40.729Z</time>
</trkpt>
<trkpt lat="50.303677" lon="8.586669"><ele>352.323853</ele><time>2011-04-10T11:02:43.732Z</time>
</trkpt>
<trkpt lat="50.303656" lon="8.586368"><ele>353.323883</ele><time>2011-04-10T11:02:46.730Z</time>
</trkpt>
<trkpt lat="50.303631" lon="8.586074"><ele>353.323883</ele><time>2011-04-10T11:02:49.734Z</time>
</trkpt>
<trkpt lat="50.303614" lon="8.585773"><ele>352.323914</ele><time>2011-04-10T11:02:52.732Z</time>
</trkpt>
<trkpt lat="50.303589" lon="8.585470"><ele>352.323914</ele><time>2011-04-10T11:02:55.730Z</time>
</trkpt>
<trkpt lat="50.303555" lon="8.585161"><ele>352.323914</ele><time>2011-04-10T11:02:58.726Z</time>
</trkpt>
<trkpt lat="50.303500" lon="8.584825"><ele>352.323914</ele><time>2011-04-10T11:03:01.734Z</time>
</trkpt>
<trkpt lat="50.303465" lon="8.584490"><ele>353.323914</ele><time>2011-04-10T11:03:04.742Z</time>
</trkpt>
<trkpt lat="50.303427" lon="8.584151"><ele>354.323914</ele><time>2011-04-10T11:03:07.732Z</time>
</trkpt>
<trkpt lat="50.303392" lon="8.583810"><ele>356.323914</ele><time>2011-04-10T11:03:10.775Z</time>
</trkpt>
<trkpt lat="50.303365" lon="8.583475"><ele>358.323914</ele><time>2011-04-10T11:03:13.732Z</time>
</trkpt>
<trkpt lat="50.303338" lon="8.583132"><ele>358.323944</ele><time>2011-04-10T11:03:16.727Z</time>
</trkpt>
<trkpt lat="50.303307" lon="8.582797"><ele>357.323944</ele><time>2011-04-10T11:03:19.735Z</time>
</trkpt>
<trkpt lat="50.303276" lon="8.582455"><ele>357.323944</ele><time>2011-04-10T11:03:22.775Z</time>
</trkpt>
<trkpt lat="50.303240" lon="8.582109"><ele>357.323975</ele><time>2011-04-10T11:03:25.729Z</time>
</trkpt>
<trkpt lat="50.303220" lon="8.581770"><ele>356.323975</ele><time>2011-04-10T11:03:28.734Z</time>
</trkpt>
<trkpt lat="50.303212" lon="8.581445"><ele>354.324005</ele><time>2011-04-10T11:03:31.727Z</time>
</trkpt>
<trkpt lat="50.303231" lon="8.581141"><ele>353.324036</ele><time>2011-04-10T11:03:34.734Z</time>
</trkpt>
<trkpt lat="50.303206" lon="8.580861"><ele>352.324036</ele><time>2011-04-10T11:03:38.732Z</time>
</trkpt>
<trkpt lat="50.303042" lon="8.581099"><ele>350.323914</ele><time>2011-04-10T11:03:44.730Z</time>
</trkpt>
<trkpt lat="50.302952" lon="8.581419"><ele>349.323853</ele><time>2011-04-10T11:03:48.733Z</time>
</trkpt>
<trkpt lat="50.302871" lon="8.581675"><ele>349.323761</ele><time>2011-04-10T11:03:51.742Z</time>
</trkpt>
<trkpt lat="50.302797" lon="8.581946"><ele>348.323700</ele><time>2011-04-10T11:03:54.727Z</time>
</trkpt>
<trkpt lat="50.302712" lon="8.582226"><ele>347.323639</ele><time>2011-04-10T11:03:57.850Z</time>
</trkpt>
<trkpt lat="50.302615" lon="8.582529"><ele>346.323547</ele><time>2011-04-10T11:04:00.726Z</time>
</trkpt>
<trkpt lat="50.302535" lon="8.582828"><ele>345.323486</ele><time>2011-04-10T11:04:03.736Z</time>
</trkpt>
<trkpt lat="50.302468" lon="8.583118"><ele>344.323425</ele><time>2011-04-10T11:04:06.733Z</time>
</trkpt>
<trkpt lat="50.302394" lon="8.583396"><ele>340.323364</ele><time>2011-04-10T11:04:09.728Z</time>
</trkpt>
<trkpt lat="50.302299" lon="8.583641"><ele>337.323273</ele><time>2011-04-10T11:04:12.739Z</time>
</trkpt>
<trkpt lat="50.302131" lon="8.583885"><ele>337.323151</ele><time>2011-04-10T11:04:16.730Z</time>
</trkpt>
<trkpt lat="50.301996" lon="8.584088"><ele>336.323059</ele><time>2011-04-10T11:04:20.729Z</time>
</trkpt>
<trkpt lat="50.301816" lon="8.584078"><ele>338.322937</ele><time>2011-04-10T11:04:26.729Z</time>
</trkpt>
<trkpt lat="50.301694" lon="8.583813"><ele>340.322906</ele><time>2011-04-10T11:04:31.725Z</time>
</trkpt>
<trkpt lat="50.301578" lon="8.583566"><ele>340.322845</ele><time>2011-04-10T11:04:35.729Z</time>
</trkpt>
<trkpt lat="50.301451" lon="8.583316"><ele>340.322784</ele><time>2011-04-10T11:04:38.729Z</time>
</trkpt>
<trkpt lat="50.301328" lon="8.583065"><ele>340.322723</ele><time>2011-04-10T11:04:41.723Z</time>
</trkpt>
<trkpt lat="50.301211" lon="8.582821"><ele>340.322693</ele><time>2011-04-10T11:04:44.727Z</time>
</trkpt>
<trkpt lat="50.301090" lon="8.582574"><ele>339.322632</ele><time>2011-04-10T11:04:47.756Z</time>
</trkpt>
<trkpt lat="50.300975" lon="8.582320"><ele>340.322571</ele><time>2011-04-10T11:04:50.727Z</time>
</trkpt>
<trkpt lat="50.300856" lon="8.582073"><ele>340.322540</ele><time>2011-04-10T11:04:53.726Z</time>
</trkpt>
<trkpt lat="50.300745" lon="8.581835"><ele>339.322479</ele><time>2011-04-10T11:04:56.731Z</time>
</trkpt>
<trkpt lat="50.300619" lon="8.581549"><ele>339.322418</ele><time>2011-04-10T11:05:00.734Z</time>
</trkpt>
<trkpt lat="50.300484" lon="8.581251"><ele>338.322388</ele><time>2011-04-10T11:05:04.729Z</time>
</trkpt>
<trkpt lat="50.300336" lon="8.580976"><ele>338.322296</ele><time>2011-04-10T11:05:08.732Z</time>
</trkpt>
<trkpt lat="50.300195" lon="8.580688"><ele>339.322235</ele><time>2011-04-10T11:05:12.796Z</time>
</trkpt>
<trkpt lat="50.300053" lon="8.580389"><ele>340.322174</ele><time>2011-04-10T11:05:16.725Z</time>
</trkpt>
<trkpt lat="50.299956" lon="8.580134"><ele>341.322144</ele><time>2011-04-10T11:05:19.723Z</time>
</trkpt>
<trkpt lat="50.299867" lon="8.579850"><ele>340.322113</ele><time>2011-04-10T11:05:22.739Z</time>
</trkpt>
<trkpt lat="50.299773" lon="8.579559"><ele>341.322083</ele><time>2011-04-10T11:05:25.734Z</time>
</trkpt>
<trkpt lat="50.299681" lon="8.579268"><ele>340.322052</ele><time>2011-04-10T11:05:28.758Z</time>
</trkpt>
<trkpt lat="50.299584" lon="8.578982"><ele>340.322021</ele><time>2011-04-10T11:05:31.747Z</time>
</trkpt>
<trkpt lat="50.299490" lon="8.578701"><ele>339.321960</ele><time>2011-04-10T11:05:34.730Z</time>
</trkpt>
<trkpt lat="50.299396" lon="8.578427"><ele>339.321930</ele><time>2011-04-10T11:05:37.734Z</time>
</trkpt>
<trkpt lat="50.299301" lon="8.578159"><ele>338.321899</ele><time>2011-04-10T11:05:40.728Z</time>
</trkpt>
<trkpt lat="50.299188" lon="8.577834"><ele>338.321869</ele><time>2011-04-10T11:05:44.733Z</time>
</trkpt>
<trkpt lat="50.299127" lon="8.577555"><ele>338.321838</ele><time>2011-04-10T11:05:48.779Z</time>
</trkpt>
<trkpt lat="50.299147" lon="8.577240"><ele>340.321899</ele><time>2011-04-10T11:05:52.789Z</time>
</trkpt>
<trkpt lat="50.299152" lon="8.576921"><ele>342.321899</ele><time>2011-04-10T11:05:57.738Z</time>
</trkpt>
<trkpt lat="50.299064" lon="8.576623"><ele>342.321899</ele><time>2011-04-10T11:06:02.732Z</time>
</trkpt>
<trkpt lat="50.298967" lon="8.576304"><ele>340.321838</ele><time>2011-04-10T11:06:06.735Z</time>
</trkpt>
<trkpt lat="50.298900" lon="8.576042"><ele>339.321838</ele><time>2011-04-10T11:06:09.767Z</time>
</trkpt>
<trkpt lat="50.298821" lon="8.575762"><ele>336.321808</ele><time>2011-04-10T11:06:12.739Z</time>
</trkpt>
<trkpt lat="50.298749" lon="8.575489"><ele>334.321777</ele><time>2011-04-10T11:06:15.735Z</time>
</trkpt>
<trkpt lat="50.298670" lon="8.575227"><ele>332.321747</ele><time>2011-04-10T11:06:18.737Z</time>
</trkpt>
<trkpt lat="50.298575" lon="8.574886"><ele>330.321716</ele><time>2011-04-10T11:06:22.732Z</time>
</trkpt>
<trkpt lat="50.298477" lon="8.574549"><ele>330.321686</ele><time>2011-04-10T11:06:26.724Z</time>
</trkpt>
<trkpt lat="50.298395" lon="8.574292"><ele>331.321655</ele><time>2011-04-10T11:06:29.784Z</time>
</trkpt>
<trkpt lat="50.298200" lon="8.574109"><ele>332.321564</ele><time>2011-04-10T11:06:33.736Z</time>
</trkpt>
<trkpt lat="50.297971" lon="8.574030"><ele>332.321442</ele><time>2011-04-10T11:06:37.733Z</time>
</trkpt>
<trkpt lat="50.297741" lon="8.573959"><ele>330.321289</ele><time>2011-04-10T11:06:41.753Z</time>
</trkpt>
<trkpt lat="50.297561" lon="8.573905"><ele>329.321198</ele><time>2011-04-10T11:06:44.743Z</time>
</trkpt>
<trkpt lat="50.297332" lon="8.573828"><ele>327.321075</ele><time>2011-04-10T11:06:48.743Z</time>
</trkpt>
<trkpt lat="50.297105" lon="8.573756"><ele>325.320923</ele><time>2011-04-10T11:06:52.739Z</time>
</trkpt>
<trkpt lat="50.296922" lon="8.573725"><ele>323.320831</ele><time>2011-04-10T11:06:55.746Z</time>
</trkpt>
<trkpt lat="50.296710" lon="8.573700"><ele>321.320709</ele><time>2011-04-10T11:06:58.748Z</time>
</trkpt>
<trkpt lat="50.296496" lon="8.573684"><ele>320.320587</ele><time>2011-04-10T11:07:01.743Z</time>
</trkpt>
<trkpt lat="50.296313" lon="8.573742"><ele>320.320465</ele><time>2011-04-10T11:07:04.733Z</time>
</trkpt>
<trkpt lat="50.296297" lon="8.573417"><ele>319.320465</ele><time>2011-04-10T11:07:11.722Z</time>
</trkpt>
<trkpt lat="50.296395" lon="8.573152"><ele>318.320557</ele><time>2011-04-10T11:07:15.729Z</time>
</trkpt>
<trkpt lat="50.296488" lon="8.572842"><ele>318.320648</ele><time>2011-04-10T11:07:19.722Z</time>
</trkpt>
<trkpt lat="50.296568" lon="8.572509"><ele>318.320709</ele><time>2011-04-10T11:07:23.736Z</time>
</trkpt>
<trkpt lat="50.296621" lon="8.572168"><ele>318.320770</ele><time>2011-04-10T11:07:27.733Z</time>
</trkpt>
<trkpt lat="50.296637" lon="8.571850"><ele>318.320801</ele><time>2011-04-10T11:07:31.724Z</time>
</trkpt>
<trkpt lat="50.296662" lon="8.571539"><ele>319.320862</ele><time>2011-04-10T11:07:35.736Z</time>
</trkpt>
<trkpt lat="50.296681" lon="8.571249"><ele>319.320892</ele><time>2011-04-10T11:07:39.730Z</time>
</trkpt>
<trkpt lat="50.296689" lon="8.570963"><ele>319.320923</ele><time>2011-04-10T11:07:43.776Z</time>
</trkpt>
<trkpt lat="50.296665" lon="8.570614"><ele>320.320923</ele><time>2011-04-10T11:07:48.729Z</time>
</trkpt>
<trkpt lat="50.296647" lon="8.570287"><ele>319.320923</ele><time>2011-04-10T11:07:53.724Z</time>
</trkpt>
<trkpt lat="50.296648" lon="8.569979"><ele>318.320953</ele><time>2011-04-10T11:07:58.730Z</time>
</trkpt>
<trkpt lat="50.296647" lon="8.569674"><ele>317.320984</ele><time>2011-04-10T11:08:03.729Z</time>
</trkpt>
<trkpt lat="50.296643" lon="8.569360"><ele>316.321014</ele><time>2011-04-10T11:08:08.731Z</time>
</trkpt>
<trkpt lat="50.296635" lon="8.569069"><ele>317.321014</ele><time>2011-04-10T11:08:13.728Z</time>
</trkpt>
<trkpt lat="50.296618" lon="8.568767"><ele>317.321045</ele><time>2011-04-10T11:08:18.740Z</time>
</trkpt>
<trkpt lat="50.296621" lon="8.568357"><ele>318.321075</ele><time>2011-04-10T11:08:29.734Z</time>
</trkpt>
<trkpt lat="50.296614" lon="8.568070"><ele>321.321106</ele><time>2011-04-10T11:08:36.734Z</time>
</trkpt>
<trkpt lat="50.296603" lon="8.567755"><ele>320.321106</ele><time>2011-04-10T11:08:41.728Z</time>
</trkpt>
<trkpt lat="50.296583" lon="8.567461"><ele>320.321106</ele><time>2011-04-10T11:08:45.733Z</time>
</trkpt>
<trkpt lat="50.296555" lon="8.567114"><ele>322.321136</ele><time>2011-04-10T11:08:50.729Z</time>
</trkpt>
<trkpt lat="50.296528" lon="8.566830"><ele>322.321136</ele><time>2011-04-10T11:08:54.741Z</time>
</trkpt>
<trkpt lat="50.296500" lon="8.566546"><ele>323.321136</ele><time>2011-04-10T11:08:58.737Z</time>
</trkpt>
<trkpt lat="50.296464" lon="8.566197"><ele>323.321136</ele><time>2011-04-10T11:09:03.742Z</time>
</trkpt>
<trkpt lat="50.296426" lon="8.565908"><ele>323.321167</ele><time>2011-04-10T11:09:07.749Z</time>
</trkpt>
<trkpt lat="50.296414" lon="8.565594"><ele>322.321167</ele><time>2011-04-10T11:09:11.752Z</time>
</trkpt>
<trkpt lat="50.296407" lon="8.565279"><ele>321.321198</ele><time>2011-04-10T11:09:15.748Z</time>
</trkpt>
<trkpt lat="50.296392" lon="8.564952"><ele>321.321198</ele><time>2011-04-10T11:09:19.749Z</time>
</trkpt>
<trkpt lat="50.296393" lon="8.564631"><ele>321.321228</ele><time>2011-04-10T11:09:23.738Z</time>
</trkpt>
<trkpt lat="50.296411" lon="8.564311"><ele>323.321259</ele><time>2011-04-10T11:09:27.737Z</time>
</trkpt>
<trkpt lat="50.296402" lon="8.564003"><ele>324.321289</ele><time>2011-04-10T11:09:31.760Z</time>
</trkpt>
<trkpt lat="50.296417" lon="8.563706"><ele>326.321320</ele><time>2011-04-10T11:09:35.729Z</time>
</trkpt>
<trkpt lat="50.296310" lon="8.563444"><ele>327.321289</ele><time>2011-04-10T11:09:54.795Z</time>
</trkpt>
<trkpt lat="50.296092" lon="8.563322"><ele>327.321167</ele><time>2011-04-10T11:09:58.728Z</time>
</trkpt>
<trkpt lat="50.295914" lon="8.563235"><ele>327.321045</ele><time>2011-04-10T11:10:01.732Z</time>
</trkpt>
<trkpt lat="50.295726" lon="8.563073"><ele>328.320953</ele><time>2011-04-10T11:10:04.735Z</time>
</trkpt>
<trkpt lat="50.295564" lon="8.562870"><ele>328.320862</ele><time>2011-04-10T11:10:07.869Z</time>
</trkpt>
<trkpt lat="50.295415" lon="8.562667"><ele>328.320801</ele><time>2011-04-10T11:10:10.730Z</time>
</trkpt>
<trkpt lat="50.295315" lon="8.562420"><ele>328.320770</ele><time>2011-04-10T11:10:13.731Z</time>
</trkpt>
<trkpt lat="50.295249" lon="8.562145"><ele>329.320740</ele><time>2011-04-10T11:10:16.719Z</time>
</trkpt>
<trkpt lat="50.295226" lon="8.561858"><ele>328.320740</ele><time>2011-04-10T11:10:19.721Z</time>
</trkpt>
<trkpt lat="50.295207" lon="8.561485"><ele>329.320770</ele><time>2011-04-10T11:10:23.723Z</time>
</trkpt>
<trkpt lat="50.295184" lon="8.561119"><ele>329.320801</ele><time>2011-04-10T11:10:27.731Z</time>
</trkpt>
<trkpt lat="50.295161" lon="8.560755"><ele>330.320801</ele><time>2011-04-10T11:10:31.725Z</time>
</trkpt>
<trkpt lat="50.295125" lon="8.560392"><ele>329.320801</ele><time>2011-04-10T11:10:35.782Z</time>
</trkpt>
<trkpt lat="50.295089" lon="8.560035"><ele>330.320801</ele><time>2011-04-10T11:10:39.737Z</time>
</trkpt>
<trkpt lat="50.295046" lon="8.559716"><ele>330.320801</ele><time>2011-04-10T11:10:43.722Z</time>
</trkpt>
<trkpt lat="50.294968" lon="8.559461"><ele>330.320801</ele><time>2011-04-10T11:10:47.834Z</time>
</trkpt>
<trkpt lat="50.294882" lon="8.559194"><ele>330.320770</ele><time>2011-04-10T11:10:51.726Z</time>
</trkpt>
<trkpt lat="50.294796" lon="8.558917"><ele>329.320740</ele><time>2011-04-10T11:10:55.720Z</time>
</trkpt>
<trkpt lat="50.294716" lon="8.558628"><ele>329.320709</ele><time>2011-04-10T11:10:59.722Z</time>
</trkpt>
<trkpt lat="50.294642" lon="8.558333"><ele>328.320679</ele><time>2011-04-10T11:11:03.736Z</time>
</trkpt>
<trkpt lat="50.294560" lon="8.558033"><ele>328.320648</ele><time>2011-04-10T11:11:07.729Z</time>
</trkpt>
<trkpt lat="50.294472" lon="8.557730"><ele>329.320618</ele><time>2011-04-10T11:11:11.767Z</time>
</trkpt>
<trkpt lat="50.294386" lon="8.557419"><ele>328.320618</ele><time>2011-04-10T11:11:15.732Z</time>
</trkpt>
<trkpt lat="50.294304" lon="8.557115"><ele>328.320587</ele><time>2011-04-10T11:11:19.721Z</time>
</trkpt>
<trkpt lat="50.294220" lon="8.556812"><ele>327.320557</ele><time>2011-04-10T11:11:23.725Z</time>
</trkpt>
<trkpt lat="50.294133" lon="8.556525"><ele>326.320526</ele><time>2011-04-10T11:11:27.748Z</time>
</trkpt>
<trkpt lat="50.294053" lon="8.556241"><ele>325.320496</ele><time>2011-04-10T11:11:31.727Z</time>
</trkpt>
<trkpt lat="50.293977" lon="8.555949"><ele>324.320465</ele><time>2011-04-10T11:11:35.730Z</time>
</trkpt>
<trkpt lat="50.293928" lon="8.555643"><ele>323.320465</ele><time>2011-04-10T11:11:39.740Z</time>
</trkpt>
<trkpt lat="50.293892" lon="8.555346"><ele>323.320465</ele><time>2011-04-10T11:11:43.730Z</time>
</trkpt>
<trkpt lat="50.293852" lon="8.555067"><ele>323.320465</ele><time>2011-04-10T11:11:47.732Z</time>
</trkpt>
<trkpt lat="50.293815" lon="8.554789"><ele>323.320465</ele><time>2011-04-10T11:11:51.729Z</time>
</trkpt>
<trkpt lat="50.293775" lon="8.554459"><ele>323.320465</ele><time>2011-04-10T11:11:56.736Z</time>
</trkpt>
<trkpt lat="50.293748" lon="8.554140"><ele>323.320496</ele><time>2011-04-10T11:12:01.751Z</time>
</trkpt>
<trkpt lat="50.293749" lon="8.553805"><ele>324.320496</ele><time>2011-04-10T11:12:06.794Z</time>
</trkpt>
<trkpt lat="50.293786" lon="8.553479"><ele>324.320557</ele><time>2011-04-10T11:12:11.741Z</time>
</trkpt>
<trkpt lat="50.293824" lon="8.553158"><ele>325.320618</ele><time>2011-04-10T11:12:16.757Z</time>
</trkpt>
<trkpt lat="50.293865" lon="8.552823"><ele>325.320648</ele><time>2011-04-10T11:12:21.743Z</time>
</trkpt>
<trkpt lat="50.293904" lon="8.552535"><ele>326.320709</ele><time>2011-04-10T11:12:25.739Z</time>
</trkpt>
<trkpt lat="50.293954" lon="8.552251"><ele>326.320740</ele><time>2011-04-10T11:12:29.744Z</time>
</trkpt>
<trkpt lat="50.294089" lon="8.551998"><ele>326.320862</ele><time>2011-04-10T11:12:34.738Z</time>
</trkpt>
<trkpt lat="50.294226" lon="8.551762"><ele>327.320953</ele><time>2011-04-10T11:12:39.747Z</time>
</trkpt>
<trkpt lat="50.294297" lon="8.551474"><ele>327.321014</ele><time>2011-04-10T11:12:44.823Z</time>
</trkpt>
<trkpt lat="50.294359" lon="8.551173"><ele>327.321075</ele><time>2011-04-10T11:12:49.746Z</time>
</trkpt>
<trkpt lat="50.294416" lon="8.550873"><ele>326.321136</ele><time>2011-04-10T11:12:54.750Z</time>
</trkpt>
<trkpt lat="50.294476" lon="8.550589"><ele>326.321198</ele><time>2011-04-10T11:12:59.733Z</time>
</trkpt>
<trkpt lat="50.294646" lon="8.550490"><ele>327.321320</ele><time>2011-04-10T11:13:05.728Z</time>
</trkpt>
<trkpt lat="50.294833" lon="8.550470"><ele>329.321411</ele><time>2011-04-10T11:13:12.861Z</time>
</trkpt>
<trkpt lat="50.295016" lon="8.550430"><ele>329.321533</ele><time>2011-04-10T11:13:19.739Z</time>
</trkpt>
<trkpt lat="50.295200" lon="8.550394"><ele>330.321655</ele><time>2011-04-10T11:13:27.731Z</time>
</trkpt>
<trkpt lat="50.295399" lon="8.550385"><ele>331.321777</ele><time>2011-04-10T11:13:35.730Z</time>
</trkpt>
<trkpt lat="50.295583" lon="8.550339"><ele>332.321869</ele><time>2011-04-10T11:13:43.724Z</time>
</trkpt>
<trkpt lat="50.295695" lon="8.550109"><ele>334.321960</ele><time>2011-04-10T11:13:53.737Z</time>
</trkpt>
<trkpt lat="50.295713" lon="8.549822"><ele>335.321991</ele><time>2011-04-10T11:14:57.730Z</time>
</trkpt>
<trkpt lat="50.295800" lon="8.549541"><ele>336.322083</ele><time>2011-04-10T11:15:04.722Z</time>
</trkpt>
<trkpt lat="50.295826" lon="8.549225"><ele>335.322113</ele><time>2011-04-10T11:15:11.722Z</time>
</trkpt>
<trkpt lat="50.295876" lon="8.548927"><ele>336.322174</ele><time>2011-04-10T11:15:17.723Z</time>
</trkpt>
<trkpt lat="50.296010" lon="8.548666"><ele>335.322266</ele><time>2011-04-10T11:15:22.730Z</time>
</trkpt>
<trkpt lat="50.296113" lon="8.548382"><ele>335.322357</ele><time>2011-04-10T11:15:26.727Z</time>
</trkpt>
<trkpt lat="50.296029" lon="8.548031"><ele>335.322327</ele><time>2011-04-10T11:15:30.731Z</time>
</trkpt>
<trkpt lat="50.295915" lon="8.547715"><ele>335.322296</ele><time>2011-04-10T11:15:34.725Z</time>
</trkpt>
<trkpt lat="50.295884" lon="8.547394"><ele>336.322296</ele><time>2011-04-10T11:15:39.735Z</time>
</trkpt>
<trkpt lat="50.296042" lon="8.547202"><ele>337.322388</ele><time>2011-04-10T11:15:44.726Z</time>
</trkpt>
<trkpt lat="50.296213" lon="8.547011"><ele>336.322510</ele><time>2011-04-10T11:15:49.727Z</time>
</trkpt>
<trkpt lat="50.296369" lon="8.546801"><ele>337.322632</ele><time>2011-04-10T11:15:54.722Z</time>
</trkpt>
<trkpt lat="50.296471" lon="8.546539"><ele>336.322723</ele><time>2011-04-10T11:15:59.734Z</time>
</trkpt>
<trkpt lat="50.296547" lon="8.546264"><ele>335.322784</ele><time>2011-04-10T11:16:04.731Z</time>
</trkpt>
<trkpt lat="50.296623" lon="8.545998"><ele>335.322845</ele><time>2011-04-10T11:16:09.727Z</time>
</trkpt>
<trkpt lat="50.296692" lon="8.545667"><ele>336.322906</ele><time>2011-04-10T11:16:16.718Z</time>
</trkpt>
<trkpt lat="50.296750" lon="8.545370"><ele>336.322968</ele><time>2011-04-10T11:16:21.729Z</time>
</trkpt>
<trkpt lat="50.296822" lon="8.545098"><ele>336.323029</ele><time>2011-04-10T11:16:26.727Z</time>
</trkpt>
<trkpt lat="50.296893" lon="8.544838"><ele>336.323090</ele><time>2011-04-10T11:16:31.720Z</time>
</trkpt>
<trkpt lat="50.297026" lon="8.544645"><ele>336.323181</ele><time>2011-04-10T11:16:37.713Z</time>
</trkpt>
<trkpt lat="50.297211" lon="8.544459"><ele>338.323303</ele><time>2011-04-10T11:16:43.726Z</time>
</trkpt>
<trkpt lat="50.297385" lon="8.544275"><ele>340.323425</ele><time>2011-04-10T11:16:48.728Z</time>
</trkpt>
<trkpt lat="50.297556" lon="8.544083"><ele>340.323547</ele><time>2011-04-10T11:16:53.730Z</time>
</trkpt>
<trkpt lat="50.297708" lon="8.543928"><ele>340.323669</ele><time>2011-04-10T11:16:58.721Z</time>
</trkpt>
<trkpt lat="50.297864" lon="8.543757"><ele>340.323761</ele><time>2011-04-10T11:17:04.756Z</time>
</trkpt>
<trkpt lat="50.298019" lon="8.543587"><ele>340.323883</ele><time>2011-04-10T11:17:10.715Z</time>
</trkpt>
<trkpt lat="50.298183" lon="8.543412"><ele>340.323975</ele><time>2011-04-10T11:17:16.718Z</time>
</trkpt>
<trkpt lat="50.298345" lon="8.543232"><ele>341.324097</ele><time>2011-04-10T11:17:22.739Z</time>
</trkpt>
<trkpt lat="50.298501" lon="8.543070"><ele>341.324188</ele><time>2011-04-10T11:17:28.722Z</time>
</trkpt>
<trkpt lat="50.298659" lon="8.542910"><ele>342.324310</ele><time>2011-04-10T11:17:34.734Z</time>
</trkpt>
<trkpt lat="50.298832" lon="8.542740"><ele>343.324432</ele><time>2011-04-10T11:17:41.731Z</time>
</trkpt>
<trkpt lat="50.298875" lon="8.542462"><ele>344.324463</ele><time>2011-04-10T11:17:50.733Z</time>
</trkpt>
<trkpt lat="50.298811" lon="8.542195"><ele>346.324463</ele><time>2011-04-10T11:17:57.738Z</time>
</trkpt>
<trkpt lat="50.298741" lon="8.541908"><ele>346.324432</ele><time>2011-04-10T11:18:04.718Z</time>
</trkpt>
<trkpt lat="50.298687" lon="8.541629"><ele>347.324432</ele><time>2011-04-10T11:18:10.720Z</time>
</trkpt>
<trkpt lat="50.298637" lon="8.541321"><ele>348.324432</ele><time>2011-04-10T11:18:16.728Z</time>
</trkpt>
<trkpt lat="50.298584" lon="8.541009"><ele>349.324402</ele><time>2011-04-10T11:18:22.729Z</time>
</trkpt>
<trkpt lat="50.298527" lon="8.540715"><ele>352.324402</ele><time>2011-04-10T11:18:28.723Z</time>
</trkpt>
<trkpt lat="50.298467" lon="8.540435"><ele>354.324402</ele><time>2011-04-10T11:18:34.719Z</time>
</trkpt>
<trkpt lat="50.298408" lon="8.540144"><ele>353.324371</ele><time>2011-04-10T11:18:40.728Z</time>
</trkpt>
<trkpt lat="50.298352" lon="8.539838"><ele>353.324371</ele><time>2011-04-10T11:18:46.726Z</time>
</trkpt>
<trkpt lat="50.298297" lon="8.539519"><ele>355.324371</ele><time>2011-04-10T11:18:52.722Z</time>
</trkpt>
<trkpt lat="50.298243" lon="8.539206"><ele>356.324341</ele><time>2011-04-10T11:18:58.714Z</time>
</trkpt>
<trkpt lat="50.298175" lon="8.538902"><ele>356.324341</ele><time>2011-04-10T11:19:04.723Z</time>
</trkpt>
<trkpt lat="50.298084" lon="8.538607"><ele>357.324310</ele><time>2011-04-10T11:19:10.727Z</time>
</trkpt>
<trkpt lat="50.297982" lon="8.538311"><ele>358.324280</ele><time>2011-04-10T11:19:16.749Z</time>
</trkpt>
<trkpt lat="50.297885" lon="8.538017"><ele>358.324219</ele><time>2011-04-10T11:19:22.725Z</time>
</trkpt>
<trkpt lat="50.297785" lon="8.537742"><ele>360.324188</ele><time>2011-04-10T11:19:28.719Z</time>
</trkpt>
<trkpt lat="50.297691" lon="8.537475"><ele>364.324158</ele><time>2011-04-10T11:19:34.718Z</time>
</trkpt>
<trkpt lat="50.297607" lon="8.537202"><ele>365.324127</ele><time>2011-04-10T11:19:40.722Z</time>
</trkpt>
<trkpt lat="50.297553" lon="8.536926"><ele>365.324127</ele><time>2011-04-10T11:19:46.723Z</time>
</trkpt>
<trkpt lat="50.297507" lon="8.536600"><ele>364.324127</ele><time>2011-04-10T11:19:53.718Z</time>
</trkpt>
<trkpt lat="50.297475" lon="8.536276"><ele>364.324127</ele><time>2011-04-10T11:19:59.728Z</time>
</trkpt>
<trkpt lat="50.297456" lon="8.535936"><ele>364.324127</ele><time>2011-04-10T11:20:04.716Z</time>
</trkpt>
<trkpt lat="50.297429" lon="8.535601"><ele>367.324158</ele><time>2011-04-10T11:20:09.725Z</time>
</trkpt>
<trkpt lat="50.297386" lon="8.535280"><ele>372.324158</ele><time>2011-04-10T11:20:14.780Z</time>
</trkpt>
<trkpt lat="50.297325" lon="8.534960"><ele>374.324127</ele><time>2011-04-10T11:20:19.730Z</time>
</trkpt>
<trkpt lat="50.297253" lon="8.534646"><ele>374.324127</ele><time>2011-04-10T11:20:24.724Z</time>
</trkpt>
<trkpt lat="50.297180" lon="8.534333"><ele>373.324097</ele><time>2011-04-10T11:20:29.756Z</time>
</trkpt>
<trkpt lat="50.297119" lon="8.534027"><ele>372.324097</ele><time>2011-04-10T11:20:34.728Z</time>
</trkpt>
<trkpt lat="50.297062" lon="8.533730"><ele>373.324097</ele><time>2011-04-10T11:20:39.742Z</time>
</trkpt>
<trkpt lat="50.297010" lon="8.533440"><ele>372.324066</ele><time>2011-04-10T11:20:44.735Z</time>
</trkpt>
<trkpt lat="50.296947" lon="8.533148"><ele>371.324066</ele><time>2011-04-10T11:20:49.721Z</time>
</trkpt>
<trkpt lat="50.296874" lon="8.532859"><ele>371.324036</ele><time>2011-04-10T11:20:54.736Z</time>
</trkpt>
<trkpt lat="50.296788" lon="8.532578"><ele>371.324005</ele><time>2011-04-10T11:20:59.728Z</time>
</trkpt>
<trkpt lat="50.296700" lon="8.532301"><ele>370.323975</ele><time>2011-04-10T11:21:04.726Z</time>
</trkpt>
<trkpt lat="50.296618" lon="8.532018"><ele>370.323944</ele><time>2011-04-10T11:21:09.763Z</time>
</trkpt>
<trkpt lat="50.296535" lon="8.531739"><ele>372.323914</ele><time>2011-04-10T11:21:14.719Z</time>
</trkpt>
<trkpt lat="50.296454" lon="8.531469"><ele>376.323883</ele><time>2011-04-10T11:21:19.731Z</time>
</trkpt>
<trkpt lat="50.296373" lon="8.531212"><ele>379.323853</ele><time>2011-04-10T11:21:24.846Z</time>
</trkpt>
<trkpt lat="50.296273" lon="8.530927"><ele>382.323822</ele><time>2011-04-10T11:21:31.717Z</time>
</trkpt>
<trkpt lat="50.296179" lon="8.530685"><ele>384.323792</ele><time>2011-04-10T11:21:37.729Z</time>
</trkpt>
<trkpt lat="50.296083" lon="8.530406"><ele>385.323761</ele><time>2011-04-10T11:21:43.724Z</time>
</trkpt>
<trkpt lat="50.295989" lon="8.530130"><ele>385.323730</ele><time>2011-04-10T11:21:49.735Z</time>
</trkpt>
<trkpt lat="50.295897" lon="8.529861"><ele>388.323700</ele><time>2011-04-10T11:21:55.717Z</time>
</trkpt>
<trkpt lat="50.295814" lon="8.529577"><ele>392.323669</ele><time>2011-04-10T11:22:01.725Z</time>
</trkpt>
<trkpt lat="50.295723" lon="8.529295"><ele>392.323639</ele><time>2011-04-10T11:22:07.728Z</time>
</trkpt>
<trkpt lat="50.295639" lon="8.529026"><ele>392.323608</ele><time>2011-04-10T11:22:13.718Z</time>
</trkpt>
<trkpt lat="50.295548" lon="8.528735"><ele>391.323578</ele><time>2011-04-10T11:22:20.723Z</time>
</trkpt>
<trkpt lat="50.295453" lon="8.528456"><ele>391.323547</ele><time>2011-04-10T11:22:27.730Z</time>
</trkpt>
<trkpt lat="50.295349" lon="8.528171"><ele>390.323486</ele><time>2011-04-10T11:22:34.728Z</time>
</trkpt>
<trkpt lat="50.295235" lon="8.527932"><ele>390.323456</ele><time>2011-04-10T11:22:40.737Z</time>
</trkpt>
<trkpt lat="50.295084" lon="8.527692"><ele>391.323364</ele><time>2011-04-10T11:22:46.735Z</time>
</trkpt>
<trkpt lat="50.294938" lon="8.527462"><ele>391.323303</ele><time>2011-04-10T11:22:52.738Z</time>
</trkpt>
<trkpt lat="50.294800" lon="8.527234"><ele>391.323242</ele><time>2011-04-10T11:22:58.735Z</time>
</trkpt>
<trkpt lat="50.294867" lon="8.526955"><ele>389.323303</ele><time>2011-04-10T11:23:05.729Z</time>
</trkpt>
<trkpt lat="50.295024" lon="8.526797"><ele>385.323425</ele><time>2011-04-10T11:23:14.724Z</time>
</trkpt>
<trkpt lat="50.295200" lon="8.526607"><ele>384.323547</ele><time>2011-04-10T11:23:23.725Z</time>
</trkpt>
<trkpt lat="50.295343" lon="8.526426"><ele>384.323639</ele><time>2011-04-10T11:23:30.719Z</time>
</trkpt>
<trkpt lat="50.295508" lon="8.526246"><ele>384.323730</ele><time>2011-04-10T11:23:37.724Z</time>
</trkpt>
<trkpt lat="50.295659" lon="8.526040"><ele>384.323853</ele><time>2011-04-10T11:23:43.716Z</time>
</trkpt>
<trkpt lat="50.295807" lon="8.525829"><ele>384.323944</ele><time>2011-04-10T11:23:48.726Z</time>
</trkpt>
<trkpt lat="50.296011" lon="8.525844"><ele>383.324066</ele><time>2011-04-10T11:23:53.724Z</time>
</trkpt>
<trkpt lat="50.296079" lon="8.526129"><ele>382.324097</ele><time>2011-04-10T11:23:57.725Z</time>
</trkpt>
<trkpt lat="50.296137" lon="8.526489"><ele>382.324097</ele><time>2011-04-10T11:24:01.729Z</time>
</trkpt>
<trkpt lat="50.296281" lon="8.526754"><ele>381.324158</ele><time>2011-04-10T11:24:05.726Z</time>
</trkpt>
<trkpt lat="50.296461" lon="8.526857"><ele>382.324280</ele><time>2011-04-10T11:24:08.722Z</time>
</trkpt>
<trkpt lat="50.296685" lon="8.526914"><ele>382.324402</ele><time>2011-04-10T11:24:11.724Z</time>
</trkpt>
<trkpt lat="50.296937" lon="8.526958"><ele>382.324524</ele><time>2011-04-10T11:24:14.724Z</time>
</trkpt>
<trkpt lat="50.297196" lon="8.527018"><ele>380.324707</ele><time>2011-04-10T11:24:17.725Z</time>
</trkpt>
<trkpt lat="50.297463" lon="8.527085"><ele>380.324860</ele><time>2011-04-10T11:24:20.728Z</time>
</trkpt>
<trkpt lat="50.297746" lon="8.527153"><ele>378.325012</ele><time>2011-04-10T11:24:23.721Z</time>
</trkpt>
<trkpt lat="50.298046" lon="8.527225"><ele>377.325195</ele><time>2011-04-10T11:24:26.722Z</time>
</trkpt>
<trkpt lat="50.298352" lon="8.527298"><ele>377.325378</ele><time>2011-04-10T11:24:29.846Z</time>
</trkpt>
<trkpt lat="50.298693" lon="8.527396"><ele>377.325562</ele><time>2011-04-10T11:24:32.736Z</time>
</trkpt>
<trkpt lat="50.299068" lon="8.527486"><ele>377.325775</ele><time>2011-04-10T11:24:35.716Z</time>
</trkpt>
<trkpt lat="50.299414" lon="8.527558"><ele>377.325989</ele><time>2011-04-10T11:24:38.717Z</time>
</trkpt>
<trkpt lat="50.299735" lon="8.527635"><ele>375.326172</ele><time>2011-04-10T11:24:41.722Z</time>
</trkpt>
<trkpt lat="50.300012" lon="8.527680"><ele>374.326324</ele><time>2011-04-10T11:24:44.726Z</time>
</trkpt>
<trkpt lat="50.300155" lon="8.527500"><ele>373.326416</ele><time>2011-04-10T11:24:47.727Z</time>
</trkpt>
<trkpt lat="50.300155" lon="8.527169"><ele>370.326447</ele><time>2011-04-10T11:24:50.729Z</time>
</trkpt>
<trkpt lat="50.300126" lon="8.526830"><ele>368.326447</ele><time>2011-04-10T11:24:53.726Z</time>
</trkpt>
<trkpt lat="50.300066" lon="8.526487"><ele>365.326447</ele><time>2011-04-10T11:24:56.715Z</time>
</trkpt>
<trkpt lat="50.299987" lon="8.526174"><ele>363.326416</ele><time>2011-04-10T11:24:59.731Z</time>
</trkpt>
<trkpt lat="50.299908" lon="8.525883"><ele>361.326385</ele><time>2011-04-10T11:25:02.734Z</time>
</trkpt>
<trkpt lat="50.299837" lon="8.525618"><ele>359.326385</ele><time>2011-04-10T11:25:05.721Z</time>
</trkpt>
<trkpt lat="50.299747" lon="8.525315"><ele>356.326355</ele><time>2011-04-10T11:25:09.724Z</time>
</trkpt>
<trkpt lat="50.299656" lon="8.525018"><ele>355.326324</ele><time>2011-04-10T11:25:13.713Z</time>
</trkpt>
<trkpt lat="50.299581" lon="8.524733"><ele>356.326294</ele><time>2011-04-10T11:25:17.741Z</time>
</trkpt>
<trkpt lat="50.299508" lon="8.524417"><ele>356.326294</ele><time>2011-04-10T11:25:21.720Z</time>
</trkpt>
<trkpt lat="50.299442" lon="8.524053"><ele>355.326263</ele><time>2011-04-10T11:25:25.729Z</time>
</trkpt>
<trkpt lat="50.299394" lon="8.523734"><ele>354.326263</ele><time>2011-04-10T11:25:28.722Z</time>
</trkpt>
<trkpt lat="50.299339" lon="8.523365"><ele>354.326263</ele><time>2011-04-10T11:25:31.723Z</time>
</trkpt>
<trkpt lat="50.299274" lon="8.522966"><ele>354.326263</ele><time>2011-04-10T11:25:34.722Z</time>
</trkpt>
<trkpt lat="50.299212" lon="8.522583"><ele>353.326233</ele><time>2011-04-10T11:25:37.717Z</time>
</trkpt>
<trkpt lat="50.299160" lon="8.522203"><ele>352.326233</ele><time>2011-04-10T11:25:40.714Z</time>
</trkpt>
<trkpt lat="50.299108" lon="8.521836"><ele>352.326233</ele><time>2011-04-10T11:25:43.720Z</time>
</trkpt>
<trkpt lat="50.299010" lon="8.521512"><ele>351.326202</ele><time>2011-04-10T11:25:46.719Z</time>
</trkpt>
<trkpt lat="50.298866" lon="8.521277"><ele>350.326141</ele><time>2011-04-10T11:25:49.726Z</time>
</trkpt>
<trkpt lat="50.298724" lon="8.521064"><ele>349.326080</ele><time>2011-04-10T11:25:52.826Z</time>
</trkpt>
<trkpt lat="50.298593" lon="8.520859"><ele>348.326019</ele><time>2011-04-10T11:25:55.778Z</time>
</trkpt>
<trkpt lat="50.298438" lon="8.520612"><ele>347.325928</ele><time>2011-04-10T11:25:59.725Z</time>
</trkpt>
<trkpt lat="50.298314" lon="8.520371"><ele>346.325897</ele><time>2011-04-10T11:26:03.728Z</time>
</trkpt>
<trkpt lat="50.298193" lon="8.520098"><ele>345.325836</ele><time>2011-04-10T11:26:08.727Z</time>
</trkpt>
<trkpt lat="50.298099" lon="8.519819"><ele>346.325806</ele><time>2011-04-10T11:26:13.725Z</time>
</trkpt>
<trkpt lat="50.298023" lon="8.519451"><ele>346.325775</ele><time>2011-04-10T11:26:18.727Z</time>
</trkpt>
<trkpt lat="50.297976" lon="8.519105"><ele>347.325775</ele><time>2011-04-10T11:26:22.725Z</time>
</trkpt>
<trkpt lat="50.297950" lon="8.518824"><ele>348.325806</ele><time>2011-04-10T11:26:26.725Z</time>
</trkpt>
<trkpt lat="50.298146" lon="8.518962"><ele>346.325897</ele><time>2011-04-10T11:26:33.728Z</time>
</trkpt>
<trkpt lat="50.298278" lon="8.519202"><ele>346.325958</ele><time>2011-04-10T11:26:38.725Z</time>
</trkpt>
<trkpt lat="50.298434" lon="8.519388"><ele>346.326050</ele><time>2011-04-10T11:26:44.725Z</time>
</trkpt>
<trkpt lat="50.298630" lon="8.519084"><ele>345.326172</ele><time>2011-04-10T11:26:49.723Z</time>
</trkpt>
<trkpt lat="50.298731" lon="8.518804"><ele>345.326263</ele><time>2011-04-10T11:26:51.730Z</time>
</trkpt>
<trkpt lat="50.298887" lon="8.518357"><ele>343.326385</ele><time>2011-04-10T11:26:54.742Z</time>
</trkpt>
<trkpt lat="50.299104" lon="8.518075"><ele>342.326538</ele><time>2011-04-10T11:26:57.729Z</time>
</trkpt>
<trkpt lat="50.299342" lon="8.517871"><ele>341.326691</ele><time>2011-04-10T11:27:00.750Z</time>
</trkpt>
<trkpt lat="50.299562" lon="8.517645"><ele>340.326843</ele><time>2011-04-10T11:27:03.725Z</time>
</trkpt>
<trkpt lat="50.299736" lon="8.517379"><ele>339.326965</ele><time>2011-04-10T11:27:06.718Z</time>
</trkpt>
<trkpt lat="50.299833" lon="8.517068"><ele>339.327057</ele><time>2011-04-10T11:27:10.718Z</time>
</trkpt>
<trkpt lat="50.299744" lon="8.516719"><ele>339.327026</ele><time>2011-04-10T11:27:14.722Z</time>
</trkpt>
<trkpt lat="50.299622" lon="8.516419"><ele>339.326965</ele><time>2011-04-10T11:27:18.726Z</time>
</trkpt>
<trkpt lat="50.299484" lon="8.516165"><ele>338.326904</ele><time>2011-04-10T11:27:23.720Z</time>
</trkpt>
<trkpt lat="50.299359" lon="8.515950"><ele>340.326843</ele><time>2011-04-10T11:27:29.723Z</time>
</trkpt>
<trkpt lat="50.299491" lon="8.515736"><ele>339.326965</ele><time>2011-04-10T11:27:39.740Z</time>
</trkpt>
<trkpt lat="50.299670" lon="8.515642"><ele>340.327057</ele><time>2011-04-10T11:27:44.722Z</time>
</trkpt>
<trkpt lat="50.299867" lon="8.515524"><ele>339.327209</ele><time>2011-04-10T11:27:49.778Z</time>
</trkpt>
<trkpt lat="50.300060" lon="8.515390"><ele>340.327332</ele><time>2011-04-10T11:27:54.727Z</time>
</trkpt>
<trkpt lat="50.300243" lon="8.515339"><ele>340.327423</ele><time>2011-04-10T11:27:58.718Z</time>
</trkpt>
<trkpt lat="50.300423" lon="8.515271"><ele>340.327545</ele><time>2011-04-10T11:28:02.716Z</time>
</trkpt>
<trkpt lat="50.300626" lon="8.515163"><ele>337.327667</ele><time>2011-04-10T11:28:07.729Z</time>
</trkpt>
<trkpt lat="50.300813" lon="8.515076"><ele>336.327789</ele><time>2011-04-10T11:28:12.725Z</time>
</trkpt>
<trkpt lat="50.301006" lon="8.514949"><ele>334.327911</ele><time>2011-04-10T11:28:18.716Z</time>
</trkpt>
<trkpt lat="50.300815" lon="8.514865"><ele>331.327820</ele><time>2011-04-10T11:28:57.733Z</time>
</trkpt>
<trkpt lat="50.300617" lon="8.514829"><ele>336.327698</ele><time>2011-04-10T11:29:25.675Z</time>
</trkpt>
<trkpt lat="50.300745" lon="8.514628"><ele>332.327789</ele><time>2011-04-10T11:30:52.779Z</time>
</trkpt>
<trkpt lat="50.300953" lon="8.514611"><ele>332.327911</ele><time>2011-04-10T11:30:58.720Z</time>
</trkpt>
<trkpt lat="50.301137" lon="8.514600"><ele>333.328033</ele><time>2011-04-10T11:31:03.748Z</time>
</trkpt>
<trkpt lat="50.301346" lon="8.514576"><ele>333.328156</ele><time>2011-04-10T11:31:09.728Z</time>
</trkpt>
<trkpt lat="50.301561" lon="8.514540"><ele>333.328278</ele><time>2011-04-10T11:31:15.775Z</time>
</trkpt>
<trkpt lat="50.301741" lon="8.514520"><ele>334.328400</ele><time>2011-04-10T11:31:20.722Z</time>
</trkpt>
<trkpt lat="50.301924" lon="8.514462"><ele>334.328491</ele><time>2011-04-10T11:31:32.711Z</time>
</trkpt>
<trkpt lat="50.302106" lon="8.514371"><ele>333.328613</ele><time>2011-04-10T11:31:45.726Z</time>
</trkpt>
<trkpt lat="50.302284" lon="8.514290"><ele>333.328735</ele><time>2011-04-10T11:31:53.715Z</time>
</trkpt>
<trkpt lat="50.302487" lon="8.514197"><ele>333.328857</ele><time>2011-04-10T11:32:00.749Z</time>
</trkpt>
<trkpt lat="50.302689" lon="8.514127"><ele>333.328979</ele><time>2011-04-10T11:32:05.720Z</time>
</trkpt>
<trkpt lat="50.302921" lon="8.514066"><ele>333.329132</ele><time>2011-04-10T11:32:09.720Z</time>
</trkpt>
<trkpt lat="50.303149" lon="8.513984"><ele>333.329285</ele><time>2011-04-10T11:32:13.716Z</time>
</trkpt>
<trkpt lat="50.303362" lon="8.513923"><ele>333.329407</ele><time>2011-04-10T11:32:17.712Z</time>
</trkpt>
<trkpt lat="50.303570" lon="8.513916"><ele>333.329529</ele><time>2011-04-10T11:32:21.719Z</time>
</trkpt>
<trkpt lat="50.303780" lon="8.513827"><ele>333.329651</ele><time>2011-04-10T11:32:25.721Z</time>
</trkpt>
<trkpt lat="50.303985" lon="8.513719"><ele>332.329803</ele><time>2011-04-10T11:32:29.727Z</time>
</trkpt>
<trkpt lat="50.304154" lon="8.513522"><ele>331.329895</ele><time>2011-04-10T11:32:33.721Z</time>
</trkpt>
<trkpt lat="50.304316" lon="8.513344"><ele>332.330017</ele><time>2011-04-10T11:32:37.776Z</time>
</trkpt>
<trkpt lat="50.304474" lon="8.513197"><ele>332.330139</ele><time>2011-04-10T11:32:41.774Z</time>
</trkpt>
<trkpt lat="50.304598" lon="8.512988"><ele>333.330200</ele><time>2011-04-10T11:32:45.724Z</time>
</trkpt>
<trkpt lat="50.304705" lon="8.512715"><ele>334.330292</ele><time>2011-04-10T11:32:49.718Z</time>
</trkpt>
<trkpt lat="50.304808" lon="8.512453"><ele>333.330383</ele><time>2011-04-10T11:32:53.713Z</time>
</trkpt>
<trkpt lat="50.304925" lon="8.512152"><ele>332.330475</ele><time>2011-04-10T11:32:57.713Z</time>
</trkpt>
<trkpt lat="50.305040" lon="8.511843"><ele>331.330566</ele><time>2011-04-10T11:33:01.721Z</time>
</trkpt>
<trkpt lat="50.305132" lon="8.511553"><ele>331.330658</ele><time>2011-04-10T11:33:05.723Z</time>
</trkpt>
<trkpt lat="50.305216" lon="8.511262"><ele>333.330719</ele><time>2011-04-10T11:33:09.712Z</time>
</trkpt>
<trkpt lat="50.305276" lon="8.510949"><ele>333.330780</ele><time>2011-04-10T11:33:13.706Z</time>
</trkpt>
<trkpt lat="50.305294" lon="8.510619"><ele>333.330811</ele><time>2011-04-10T11:33:17.714Z</time>
</trkpt>
<trkpt lat="50.305307" lon="8.510320"><ele>333.330841</ele><time>2011-04-10T11:33:21.719Z</time>
</trkpt>
<trkpt lat="50.305378" lon="8.510029"><ele>333.330902</ele><time>2011-04-10T11:33:25.739Z</time>
</trkpt>
<trkpt lat="50.305459" lon="8.509710"><ele>332.330994</ele><time>2011-04-10T11:33:29.713Z</time>
</trkpt>
<trkpt lat="50.305602" lon="8.509434"><ele>331.331085</ele><time>2011-04-10T11:33:33.748Z</time>
</trkpt>
<trkpt lat="50.305768" lon="8.509196"><ele>331.331207</ele><time>2011-04-10T11:33:37.725Z</time>
</trkpt>
<trkpt lat="50.305901" lon="8.508963"><ele>331.331299</ele><time>2011-04-10T11:33:40.723Z</time>
</trkpt>
<trkpt lat="50.306043" lon="8.508714"><ele>330.331421</ele><time>2011-04-10T11:33:43.852Z</time>
</trkpt>
<trkpt lat="50.306171" lon="8.508501"><ele>327.331512</ele><time>2011-04-10T11:33:47.723Z</time>
</trkpt>
<trkpt lat="50.306092" lon="8.508234"><ele>325.331482</ele><time>2011-04-10T11:33:53.722Z</time>
</trkpt>
<trkpt lat="50.306002" lon="8.507971"><ele>325.331451</ele><time>2011-04-10T11:33:58.722Z</time>
</trkpt>
<trkpt lat="50.305915" lon="8.507722"><ele>325.331421</ele><time>2011-04-10T11:34:03.732Z</time>
</trkpt>
<trkpt lat="50.305831" lon="8.507472"><ele>325.331390</ele><time>2011-04-10T11:34:09.738Z</time>
</trkpt>
<trkpt lat="50.305755" lon="8.507201"><ele>327.331360</ele><time>2011-04-10T11:34:16.717Z</time>
</trkpt>
<trkpt lat="50.305679" lon="8.506904"><ele>328.331329</ele><time>2011-04-10T11:34:23.715Z</time>
</trkpt>
<trkpt lat="50.305603" lon="8.506606"><ele>330.331299</ele><time>2011-04-10T11:34:30.725Z</time>
</trkpt>
<trkpt lat="50.305535" lon="8.506332"><ele>332.331299</ele><time>2011-04-10T11:34:37.719Z</time>
</trkpt>
<trkpt lat="50.305502" lon="8.506036"><ele>333.331299</ele><time>2011-04-10T11:34:46.717Z</time>
</trkpt>
<trkpt lat="50.305520" lon="8.505688"><ele>334.331329</ele><time>2011-04-10T11:34:57.715Z</time>
</trkpt>
<trkpt lat="50.305498" lon="8.505265"><ele>336.331360</ele><time>2011-04-10T11:35:17.719Z</time>
</trkpt>
<trkpt lat="50.305466" lon="8.504957"><ele>337.331360</ele><time>2011-04-10T11:35:27.717Z</time>
</trkpt>
<trkpt lat="50.305529" lon="8.504658"><ele>336.331421</ele><time>2011-04-10T11:35:36.718Z</time>
</trkpt>
<trkpt lat="50.305610" lon="8.504397"><ele>336.331482</ele><time>2011-04-10T11:35:40.720Z</time>
</trkpt>
<trkpt lat="50.305692" lon="8.504138"><ele>335.331573</ele><time>2011-04-10T11:35:44.720Z</time>
</trkpt>
<trkpt lat="50.305609" lon="8.503877"><ele>335.331543</ele><time>2011-04-10T11:35:52.708Z</time>
</trkpt>
<trkpt lat="50.305409" lon="8.503875"><ele>335.331421</ele><time>2011-04-10T11:36:01.727Z</time>
</trkpt>
<trkpt lat="50.305183" lon="8.503976"><ele>337.331268</ele><time>2011-04-10T11:36:12.719Z</time>
</trkpt>
<trkpt lat="50.305010" lon="8.504077"><ele>337.331146</ele><time>2011-04-10T11:36:21.723Z</time>
</trkpt>
<trkpt lat="50.304805" lon="8.504138"><ele>341.331024</ele><time>2011-04-10T11:36:33.717Z</time>
</trkpt>
<trkpt lat="50.304582" lon="8.504252"><ele>341.330902</ele><time>2011-04-10T11:36:44.713Z</time>
</trkpt>
<trkpt lat="50.304383" lon="8.504347"><ele>343.330750</ele><time>2011-04-10T11:36:50.717Z</time>
</trkpt>
<trkpt lat="50.304195" lon="8.504405"><ele>344.330658</ele><time>2011-04-10T11:36:56.717Z</time>
</trkpt>
<trkpt lat="50.303999" lon="8.504388"><ele>344.330536</ele><time>2011-04-10T11:37:03.776Z</time>
</trkpt>
<trkpt lat="50.303803" lon="8.504307"><ele>344.330414</ele><time>2011-04-10T11:37:11.709Z</time>
</trkpt>
<trkpt lat="50.303635" lon="8.504187"><ele>345.330322</ele><time>2011-04-10T11:37:19.713Z</time>
</trkpt>
<trkpt lat="50.303551" lon="8.503908"><ele>346.330322</ele><time>2011-04-10T11:37:28.721Z</time>
</trkpt>
<trkpt lat="50.303604" lon="8.503618"><ele>347.330353</ele><time>2011-04-10T11:37:35.715Z</time>
</trkpt>
<trkpt lat="50.303699" lon="8.503282"><ele>348.330444</ele><time>2011-04-10T11:37:45.720Z</time>
</trkpt>
<trkpt lat="50.303785" lon="8.503013"><ele>351.330505</ele><time>2011-04-10T11:37:53.709Z</time>
</trkpt>
<trkpt lat="50.303839" lon="8.502734"><ele>351.330566</ele><time>2011-04-10T11:38:01.712Z</time>
</trkpt>
<trkpt lat="50.303877" lon="8.502458"><ele>351.330627</ele><time>2011-04-10T11:38:09.852Z</time>
</trkpt>
</trkseg>
</trk>
</gpx>